<?xml version='1.0' encoding='UTF-8'?>
<gpx version="1.1" creator="https://www.komoot.de" xmlns="http://www.topografix.com/GPX/1/1" xmlns:xsi="http://www.w3.org/2001/XMLSchema-instance" xsi:schemaLocation="http://www.topografix.com/GPX/1/1 http://www.topografix.com/GPX/1/1/gpx.xsd">
  <metadata>
    <name>2026 05 30_Fullspeed über-2-50 Km Samstag</name>
    <author>
      <link href="https://www.komoot.de">
        <text>komoot</text>
        <type>text/html</type>
      </link>
    </author>
  </metadata>
  <trk>
    <name>2026 05 30_Fullspeed über-2-50 Km Samstag</name>
    <trkseg>
      <trkpt lat="52.024446" lon="8.907343">
        <ele>97.452932</ele>
        <time>2026-05-25T08:42:09.627Z</time>
      </trkpt>
      <trkpt lat="52.024501" lon="8.907135">
        <ele>97.452932</ele>
        <time>2026-05-25T08:42:12.497Z</time>
      </trkpt>
      <trkpt lat="52.024630" lon="8.907230">
        <ele>97.452932</ele>
        <time>2026-05-25T08:42:15.438Z</time>
      </trkpt>
      <trkpt lat="52.024761" lon="8.907326">
        <ele>97.452932</ele>
        <time>2026-05-25T08:42:18.452Z</time>
      </trkpt>
      <trkpt lat="52.024891" lon="8.907415">
        <ele>97.452932</ele>
        <time>2026-05-25T08:42:21.440Z</time>
      </trkpt>
      <trkpt lat="52.025044" lon="8.907447">
        <ele>97.452932</ele>
        <time>2026-05-25T08:42:24.748Z</time>
      </trkpt>
      <trkpt lat="52.025134" lon="8.907465">
        <ele>97.452932</ele>
        <time>2026-05-25T08:42:26.694Z</time>
      </trkpt>
      <trkpt lat="52.025148" lon="8.907466">
        <ele>97.452932</ele>
        <time>2026-05-25T08:42:27.085Z</time>
      </trkpt>
      <trkpt lat="52.025203" lon="8.907453">
        <ele>97.452932</ele>
        <time>2026-05-25T08:42:28.638Z</time>
      </trkpt>
      <trkpt lat="52.025201" lon="8.907042">
        <ele>97.549372</ele>
        <time>2026-05-25T08:42:34.333Z</time>
      </trkpt>
      <trkpt lat="52.025135" lon="8.907017">
        <ele>97.577325</ele>
        <time>2026-05-25T08:42:36.196Z</time>
      </trkpt>
      <trkpt lat="52.024396" lon="8.906385">
        <ele>97.921769</ele>
        <time>2026-05-25T08:42:54.510Z</time>
      </trkpt>
      <trkpt lat="52.024340" lon="8.906308">
        <ele>97.952025</ele>
        <time>2026-05-25T08:42:56.113Z</time>
      </trkpt>
      <trkpt lat="52.024136" lon="8.906030">
        <ele>98.061837</ele>
        <time>2026-05-25T08:43:01.977Z</time>
      </trkpt>
      <trkpt lat="52.023984" lon="8.905573">
        <ele>98.193686</ele>
        <time>2026-05-25T08:43:08.978Z</time>
      </trkpt>
      <trkpt lat="52.023846" lon="8.904631">
        <ele>98.395083</ele>
        <time>2026-05-25T08:43:21.753Z</time>
      </trkpt>
      <trkpt lat="52.023851" lon="8.904259">
        <ele>98.472392</ele>
        <time>2026-05-25T08:43:26.647Z</time>
      </trkpt>
      <trkpt lat="52.023872" lon="8.904100">
        <ele>98.506180</ele>
        <time>2026-05-25T08:43:28.796Z</time>
      </trkpt>
      <trkpt lat="52.023892" lon="8.904000">
        <ele>98.528027</ele>
        <time>2026-05-25T08:43:30.180Z</time>
      </trkpt>
      <trkpt lat="52.023946" lon="8.903493">
        <ele>98.634934</ele>
        <time>2026-05-25T08:43:37.077Z</time>
      </trkpt>
      <trkpt lat="52.023918" lon="8.901989">
        <ele>98.802987</ele>
        <time>2026-05-25T08:43:57.373Z</time>
      </trkpt>
      <trkpt lat="52.023986" lon="8.901106">
        <ele>98.804058</ele>
        <time>2026-05-25T08:44:09.157Z</time>
      </trkpt>
      <trkpt lat="52.024077" lon="8.899614">
        <ele>98.761688</ele>
        <time>2026-05-25T08:44:27.949Z</time>
      </trkpt>
      <trkpt lat="52.024100" lon="8.899368">
        <ele>98.695796</ele>
        <time>2026-05-25T08:44:31.025Z</time>
      </trkpt>
      <trkpt lat="52.024195" lon="8.899360">
        <ele>98.654857</ele>
        <time>2026-05-25T08:44:32.984Z</time>
      </trkpt>
      <trkpt lat="52.024189" lon="8.898959">
        <ele>98.548636</ele>
        <time>2026-05-25T08:44:37.951Z</time>
      </trkpt>
      <trkpt lat="52.024104" lon="8.898493">
        <ele>98.419925</ele>
        <time>2026-05-25T08:44:43.947Z</time>
      </trkpt>
      <trkpt lat="52.024277" lon="8.895227">
        <ele>97.462588</ele>
        <time>2026-05-25T08:45:25.280Z</time>
      </trkpt>
      <trkpt lat="52.024616" lon="8.894787">
        <ele>97.241140</ele>
        <time>2026-05-25T08:45:33.828Z</time>
      </trkpt>
      <trkpt lat="52.024850" lon="8.894608">
        <ele>97.105204</ele>
        <time>2026-05-25T08:45:38.942Z</time>
      </trkpt>
      <trkpt lat="52.024924" lon="8.894502">
        <ele>97.009820</ele>
        <time>2026-05-25T08:45:40.896Z</time>
      </trkpt>
      <trkpt lat="52.025444" lon="8.894354">
        <ele>96.499338</ele>
        <time>2026-05-25T08:45:51.208Z</time>
      </trkpt>
      <trkpt lat="52.025442" lon="8.894262">
        <ele>96.444565</ele>
        <time>2026-05-25T08:45:52.302Z</time>
      </trkpt>
      <trkpt lat="52.025401" lon="8.893524">
        <ele>96.003673</ele>
        <time>2026-05-25T08:46:01.052Z</time>
      </trkpt>
      <trkpt lat="52.025038" lon="8.891239">
        <ele>94.879081</ele>
        <time>2026-05-25T08:46:29.156Z</time>
      </trkpt>
      <trkpt lat="52.025034" lon="8.891098">
        <ele>94.825401</ele>
        <time>2026-05-25T08:46:30.912Z</time>
      </trkpt>
      <trkpt lat="52.025056" lon="8.890940">
        <ele>94.763795</ele>
        <time>2026-05-25T08:46:32.922Z</time>
      </trkpt>
      <trkpt lat="52.025146" lon="8.890861">
        <ele>94.700574</ele>
        <time>2026-05-25T08:46:34.979Z</time>
      </trkpt>
      <trkpt lat="52.025161" lon="8.890824">
        <ele>94.683724</ele>
        <time>2026-05-25T08:46:35.539Z</time>
      </trkpt>
      <trkpt lat="52.025178" lon="8.890692">
        <ele>94.632436</ele>
        <time>2026-05-25T08:46:37.226Z</time>
      </trkpt>
      <trkpt lat="52.025136" lon="8.890549">
        <ele>94.572176</ele>
        <time>2026-05-25T08:46:39.210Z</time>
      </trkpt>
      <trkpt lat="52.025029" lon="8.890484">
        <ele>94.501575</ele>
        <time>2026-05-25T08:46:41.536Z</time>
      </trkpt>
      <trkpt lat="52.024953" lon="8.890530">
        <ele>94.451450</ele>
        <time>2026-05-25T08:46:43.207Z</time>
      </trkpt>
      <trkpt lat="52.024890" lon="8.890431">
        <ele>94.397287</ele>
        <time>2026-05-25T08:46:44.977Z</time>
      </trkpt>
      <trkpt lat="52.024840" lon="8.890261">
        <ele>94.325630</ele>
        <time>2026-05-25T08:46:47.362Z</time>
      </trkpt>
      <trkpt lat="52.024748" lon="8.889883">
        <ele>94.238316</ele>
        <time>2026-05-25T08:46:52.600Z</time>
      </trkpt>
      <trkpt lat="52.024681" lon="8.889580">
        <ele>94.205838</ele>
        <time>2026-05-25T08:46:56.762Z</time>
      </trkpt>
      <trkpt lat="52.024538" lon="8.888872">
        <ele>94.130671</ele>
        <time>2026-05-25T08:47:06.429Z</time>
      </trkpt>
      <trkpt lat="52.024520" lon="8.888766">
        <ele>94.119579</ele>
        <time>2026-05-25T08:47:07.843Z</time>
      </trkpt>
      <trkpt lat="52.024414" lon="8.888104">
        <ele>94.050577</ele>
        <time>2026-05-25T08:47:16.505Z</time>
      </trkpt>
      <trkpt lat="52.024234" lon="8.886966">
        <ele>93.949347</ele>
        <time>2026-05-25T08:47:31.445Z</time>
      </trkpt>
      <trkpt lat="52.024192" lon="8.886697">
        <ele>93.934917</ele>
        <time>2026-05-25T08:47:34.995Z</time>
      </trkpt>
      <trkpt lat="52.024056" lon="8.885836">
        <ele>93.888699</ele>
        <time>2026-05-25T08:47:46.190Z</time>
      </trkpt>
      <trkpt lat="52.023939" lon="8.885117">
        <ele>93.850030</ele>
        <time>2026-05-25T08:47:55.825Z</time>
      </trkpt>
      <trkpt lat="52.023871" lon="8.884728">
        <ele>93.829004</ele>
        <time>2026-05-25T08:48:01.195Z</time>
      </trkpt>
      <trkpt lat="52.023533" lon="8.882789">
        <ele>93.737063</ele>
        <time>2026-05-25T08:48:27.843Z</time>
      </trkpt>
      <trkpt lat="52.023391" lon="8.881911">
        <ele>93.696483</ele>
        <time>2026-05-25T08:48:39.356Z</time>
      </trkpt>
      <trkpt lat="52.023264" lon="8.880830">
        <ele>93.238621</ele>
        <time>2026-05-25T08:48:52.836Z</time>
      </trkpt>
      <trkpt lat="52.023069" lon="8.880458">
        <ele>92.980701</ele>
        <time>2026-05-25T08:48:58.634Z</time>
      </trkpt>
      <trkpt lat="52.023154" lon="8.880148">
        <ele>92.801579</ele>
        <time>2026-05-25T08:49:02.803Z</time>
      </trkpt>
      <trkpt lat="52.023178" lon="8.879932">
        <ele>92.685733</ele>
        <time>2026-05-25T08:49:05.501Z</time>
      </trkpt>
      <trkpt lat="52.023183" lon="8.879748">
        <ele>92.588525</ele>
        <time>2026-05-25T08:49:07.775Z</time>
      </trkpt>
      <trkpt lat="52.023077" lon="8.878018">
        <ele>91.827281</ele>
        <time>2026-05-25T08:49:29.624Z</time>
      </trkpt>
      <trkpt lat="52.023073" lon="8.877880">
        <ele>91.778547</ele>
        <time>2026-05-25T08:49:31.354Z</time>
      </trkpt>
      <trkpt lat="52.023081" lon="8.876352">
        <ele>91.239512</ele>
        <time>2026-05-25T08:49:51.204Z</time>
      </trkpt>
      <trkpt lat="52.023209" lon="8.873318">
        <ele>90.789108</ele>
        <time>2026-05-25T08:50:31.685Z</time>
      </trkpt>
      <trkpt lat="52.023258" lon="8.872499">
        <ele>90.644434</ele>
        <time>2026-05-25T08:50:42.657Z</time>
      </trkpt>
      <trkpt lat="52.023323" lon="8.871864">
        <ele>90.516073</ele>
        <time>2026-05-25T08:50:51.190Z</time>
      </trkpt>
      <trkpt lat="52.023445" lon="8.870798">
        <ele>90.299864</ele>
        <time>2026-05-25T08:51:05.423Z</time>
      </trkpt>
      <trkpt lat="52.023648" lon="8.869033">
        <ele>90.099163</ele>
        <time>2026-05-25T08:51:28.670Z</time>
      </trkpt>
      <trkpt lat="52.023730" lon="8.868635">
        <ele>90.071528</ele>
        <time>2026-05-25T08:51:34.215Z</time>
      </trkpt>
      <trkpt lat="52.023992" lon="8.867400">
        <ele>89.985519</ele>
        <time>2026-05-25T08:51:52.032Z</time>
      </trkpt>
      <trkpt lat="52.024063" lon="8.867157">
        <ele>90.174542</ele>
        <time>2026-05-25T08:51:55.822Z</time>
      </trkpt>
      <trkpt lat="52.024171" lon="8.866899">
        <ele>90.411981</ele>
        <time>2026-05-25T08:52:00.237Z</time>
      </trkpt>
      <trkpt lat="52.024308" lon="8.866666">
        <ele>90.657204</ele>
        <time>2026-05-25T08:52:04.848Z</time>
      </trkpt>
      <trkpt lat="52.024463" lon="8.866481">
        <ele>90.895017</ele>
        <time>2026-05-25T08:52:09.350Z</time>
      </trkpt>
      <trkpt lat="52.024669" lon="8.866323">
        <ele>91.176702</ele>
        <time>2026-05-25T08:52:14.718Z</time>
      </trkpt>
      <trkpt lat="52.024730" lon="8.866282">
        <ele>91.258332</ele>
        <time>2026-05-25T08:52:16.278Z</time>
      </trkpt>
      <trkpt lat="52.024903" lon="8.866225">
        <ele>91.476617</ele>
        <time>2026-05-25T08:52:20.471Z</time>
      </trkpt>
      <trkpt lat="52.025144" lon="8.866194">
        <ele>91.775571</ele>
        <time>2026-05-25T08:52:26.233Z</time>
      </trkpt>
      <trkpt lat="52.025615" lon="8.866152">
        <ele>92.307595</ele>
        <time>2026-05-25T08:52:37.482Z</time>
      </trkpt>
      <trkpt lat="52.026582" lon="8.866146">
        <ele>93.095594</ele>
        <time>2026-05-25T08:53:00.140Z</time>
      </trkpt>
      <trkpt lat="52.026592" lon="8.865806">
        <ele>93.266263</ele>
        <time>2026-05-25T08:53:04.721Z</time>
      </trkpt>
      <trkpt lat="52.026601" lon="8.865171">
        <ele>93.584733</ele>
        <time>2026-05-25T08:53:13.079Z</time>
      </trkpt>
      <trkpt lat="52.026519" lon="8.864529">
        <ele>93.599935</ele>
        <time>2026-05-25T08:53:21.360Z</time>
      </trkpt>
      <trkpt lat="52.026306" lon="8.862981">
        <ele>93.353236</ele>
        <time>2026-05-25T08:53:41.081Z</time>
      </trkpt>
      <trkpt lat="52.026258" lon="8.862304">
        <ele>93.247248</ele>
        <time>2026-05-25T08:53:49.781Z</time>
      </trkpt>
      <trkpt lat="52.026291" lon="8.859989">
        <ele>92.917891</ele>
        <time>2026-05-25T08:54:19.946Z</time>
      </trkpt>
      <trkpt lat="52.026263" lon="8.859241">
        <ele>92.812134</ele>
        <time>2026-05-25T08:54:29.383Z</time>
      </trkpt>
      <trkpt lat="52.026170" lon="8.857847">
        <ele>91.544931</ele>
        <time>2026-05-25T08:54:45.333Z</time>
      </trkpt>
      <trkpt lat="52.026086" lon="8.857528">
        <ele>91.224298</ele>
        <time>2026-05-25T08:54:49.123Z</time>
      </trkpt>
      <trkpt lat="52.025958" lon="8.857468">
        <ele>91.024233</ele>
        <time>2026-05-25T08:54:51.475Z</time>
      </trkpt>
      <trkpt lat="52.025242" lon="8.857558">
        <ele>90.031182</ele>
        <time>2026-05-25T08:55:04.123Z</time>
      </trkpt>
      <trkpt lat="52.025111" lon="8.857572">
        <ele>89.939260</ele>
        <time>2026-05-25T08:55:06.490Z</time>
      </trkpt>
      <trkpt lat="52.024728" lon="8.857641">
        <ele>89.669447</ele>
        <time>2026-05-25T08:55:13.703Z</time>
      </trkpt>
      <trkpt lat="52.024716" lon="8.857643">
        <ele>89.661001</ele>
        <time>2026-05-25T08:55:13.946Z</time>
      </trkpt>
      <trkpt lat="52.023923" lon="8.857687">
        <ele>89.105432</ele>
        <time>2026-05-25T08:55:29.890Z</time>
      </trkpt>
      <trkpt lat="52.023295" lon="8.857775">
        <ele>89.153966</ele>
        <time>2026-05-25T08:55:43.509Z</time>
      </trkpt>
      <trkpt lat="52.023118" lon="8.857834">
        <ele>89.367329</ele>
        <time>2026-05-25T08:55:47.571Z</time>
      </trkpt>
      <trkpt lat="52.022869" lon="8.857943">
        <ele>89.671843</ele>
        <time>2026-05-25T08:55:56.301Z</time>
      </trkpt>
      <trkpt lat="52.022165" lon="8.857761">
        <ele>90.513620</ele>
        <time>2026-05-25T08:56:12.609Z</time>
      </trkpt>
      <trkpt lat="52.021866" lon="8.857691">
        <ele>90.870341</ele>
        <time>2026-05-25T08:56:19.590Z</time>
      </trkpt>
      <trkpt lat="52.021522" lon="8.857245">
        <ele>91.503782</ele>
        <time>2026-05-25T08:56:29.923Z</time>
      </trkpt>
      <trkpt lat="52.021382" lon="8.857139">
        <ele>91.735620</ele>
        <time>2026-05-25T08:56:33.529Z</time>
      </trkpt>
      <trkpt lat="52.018913" lon="8.857078">
        <ele>94.558611</ele>
        <time>2026-05-25T08:57:29.865Z</time>
      </trkpt>
      <trkpt lat="52.018835" lon="8.857052">
        <ele>94.618534</ele>
        <time>2026-05-25T08:57:31.580Z</time>
      </trkpt>
      <trkpt lat="52.018710" lon="8.856889">
        <ele>94.739151</ele>
        <time>2026-05-25T08:57:35.023Z</time>
      </trkpt>
      <trkpt lat="52.018453" lon="8.856265">
        <ele>94.945752</ele>
        <time>2026-05-25T08:57:44.534Z</time>
      </trkpt>
      <trkpt lat="52.018271" lon="8.855680">
        <ele>94.569701</ele>
        <time>2026-05-25T08:57:52.523Z</time>
      </trkpt>
      <trkpt lat="52.018224" lon="8.855332">
        <ele>94.365308</ele>
        <time>2026-05-25T08:57:56.659Z</time>
      </trkpt>
      <trkpt lat="52.018229" lon="8.854796">
        <ele>94.057778</ele>
        <time>2026-05-25T08:58:02.593Z</time>
      </trkpt>
      <trkpt lat="52.018172" lon="8.853938">
        <ele>93.562698</ele>
        <time>2026-05-25T08:58:12.386Z</time>
      </trkpt>
      <trkpt lat="52.018160" lon="8.853869">
        <ele>93.521563</ele>
        <time>2026-05-25T08:58:13.249Z</time>
      </trkpt>
      <trkpt lat="52.018005" lon="8.853211">
        <ele>93.486695</ele>
        <time>2026-05-25T08:58:21.954Z</time>
      </trkpt>
      <trkpt lat="52.017888" lon="8.853010">
        <ele>93.583074</ele>
        <time>2026-05-25T08:58:25.562Z</time>
      </trkpt>
      <trkpt lat="52.017738" lon="8.852831">
        <ele>93.688419</ele>
        <time>2026-05-25T08:58:29.610Z</time>
      </trkpt>
      <trkpt lat="52.017270" lon="8.852352">
        <ele>94.001502</ele>
        <time>2026-05-25T08:58:41.926Z</time>
      </trkpt>
      <trkpt lat="52.017178" lon="8.852191">
        <ele>94.078037</ele>
        <time>2026-05-25T08:58:45.026Z</time>
      </trkpt>
      <trkpt lat="52.017086" lon="8.851965">
        <ele>94.172432</ele>
        <time>2026-05-25T08:58:48.875Z</time>
      </trkpt>
      <trkpt lat="52.016948" lon="8.851505">
        <ele>94.350704</ele>
        <time>2026-05-25T08:58:56.140Z</time>
      </trkpt>
      <trkpt lat="52.016830" lon="8.851272">
        <ele>94.407743</ele>
        <time>2026-05-25T08:59:00.375Z</time>
      </trkpt>
      <trkpt lat="52.016073" lon="8.851276">
        <ele>94.608702</ele>
        <time>2026-05-25T08:59:17.155Z</time>
      </trkpt>
      <trkpt lat="52.015833" lon="8.848498">
        <ele>94.992043</ele>
        <time>2026-05-25T08:59:52.167Z</time>
      </trkpt>
      <trkpt lat="52.015699" lon="8.848035">
        <ele>95.047687</ele>
        <time>2026-05-25T08:59:58.777Z</time>
      </trkpt>
      <trkpt lat="52.013836" lon="8.843249">
        <ele>97.870155</ele>
        <time>2026-05-25T09:01:17.224Z</time>
      </trkpt>
      <trkpt lat="52.013637" lon="8.842762">
        <ele>98.186863</ele>
        <time>2026-05-25T09:01:25.256Z</time>
      </trkpt>
      <trkpt lat="52.013219" lon="8.841734">
        <ele>98.786097</ele>
        <time>2026-05-25T09:01:42.087Z</time>
      </trkpt>
      <trkpt lat="52.012887" lon="8.840904">
        <ele>99.209066</ele>
        <time>2026-05-25T09:01:55.456Z</time>
      </trkpt>
      <trkpt lat="52.011781" lon="8.838085">
        <ele>100.779248</ele>
        <time>2026-05-25T09:02:41.362Z</time>
      </trkpt>
      <trkpt lat="52.011674" lon="8.837794">
        <ele>100.948028</ele>
        <time>2026-05-25T09:02:46.048Z</time>
      </trkpt>
      <trkpt lat="52.011687" lon="8.837700">
        <ele>100.995999</ele>
        <time>2026-05-25T09:02:47.379Z</time>
      </trkpt>
      <trkpt lat="52.011659" lon="8.837678">
        <ele>101.021160</ele>
        <time>2026-05-25T09:02:48.077Z</time>
      </trkpt>
      <trkpt lat="52.011635" lon="8.837658">
        <ele>101.042980</ele>
        <time>2026-05-25T09:02:48.682Z</time>
      </trkpt>
      <trkpt lat="52.010906" lon="8.835864">
        <ele>101.666406</ele>
        <time>2026-05-25T09:03:18.013Z</time>
      </trkpt>
      <trkpt lat="52.010022" lon="8.833601">
        <ele>101.634921</ele>
        <time>2026-05-25T09:03:52.579Z</time>
      </trkpt>
      <trkpt lat="52.009868" lon="8.833207">
        <ele>101.538427</ele>
        <time>2026-05-25T09:03:58.391Z</time>
      </trkpt>
      <trkpt lat="52.009795" lon="8.832843">
        <ele>101.459278</ele>
        <time>2026-05-25T09:04:03.130Z</time>
      </trkpt>
      <trkpt lat="52.009702" lon="8.831270">
        <ele>100.656128</ele>
        <time>2026-05-25T09:04:22.309Z</time>
      </trkpt>
      <trkpt lat="52.009664" lon="8.831015">
        <ele>100.480508</ele>
        <time>2026-05-25T09:04:25.441Z</time>
      </trkpt>
      <trkpt lat="52.009638" lon="8.830944">
        <ele>100.425209</ele>
        <time>2026-05-25T09:04:26.429Z</time>
      </trkpt>
      <trkpt lat="52.009584" lon="8.830797">
        <ele>100.310621</ele>
        <time>2026-05-25T09:04:28.466Z</time>
      </trkpt>
      <trkpt lat="52.008742" lon="8.829330">
        <ele>98.624465</ele>
        <time>2026-05-25T09:04:51.618Z</time>
      </trkpt>
      <trkpt lat="52.008607" lon="8.829089">
        <ele>98.228596</ele>
        <time>2026-05-25T09:04:55.173Z</time>
      </trkpt>
      <trkpt lat="52.008298" lon="8.828535">
        <ele>97.320355</ele>
        <time>2026-05-25T09:05:03.250Z</time>
      </trkpt>
      <trkpt lat="52.008168" lon="8.828387">
        <ele>97.007053</ele>
        <time>2026-05-25T09:05:06.024Z</time>
      </trkpt>
      <trkpt lat="52.007989" lon="8.828325">
        <ele>96.645830</ele>
        <time>2026-05-25T09:05:09.194Z</time>
      </trkpt>
      <trkpt lat="52.007475" lon="8.828419">
        <ele>95.617998</ele>
        <time>2026-05-25T09:05:17.987Z</time>
      </trkpt>
      <trkpt lat="52.007589" lon="8.828161">
        <ele>95.219630</ele>
        <time>2026-05-25T09:05:21.283Z</time>
      </trkpt>
      <trkpt lat="52.008376" lon="8.826666">
        <ele>92.752165</ele>
        <time>2026-05-25T09:05:42.248Z</time>
      </trkpt>
      <trkpt lat="52.008509" lon="8.826058">
        <ele>92.211033</ele>
        <time>2026-05-25T09:05:49.513Z</time>
      </trkpt>
      <trkpt lat="52.008548" lon="8.825864">
        <ele>92.251439</ele>
        <time>2026-05-25T09:05:51.908Z</time>
      </trkpt>
      <trkpt lat="52.008601" lon="8.825622">
        <ele>92.302295</ele>
        <time>2026-05-25T09:05:55.018Z</time>
      </trkpt>
      <trkpt lat="52.008621" lon="8.825274">
        <ele>92.371494</ele>
        <time>2026-05-25T09:05:59.403Z</time>
      </trkpt>
      <trkpt lat="52.008594" lon="8.824957">
        <ele>92.434854</ele>
        <time>2026-05-25T09:06:03.609Z</time>
      </trkpt>
      <trkpt lat="52.008392" lon="8.824243">
        <ele>92.590434</ele>
        <time>2026-05-25T09:06:14.460Z</time>
      </trkpt>
      <trkpt lat="52.007975" lon="8.823273">
        <ele>93.090247</ele>
        <time>2026-05-25T09:06:31.226Z</time>
      </trkpt>
      <trkpt lat="52.007838" lon="8.823071">
        <ele>93.370200</ele>
        <time>2026-05-25T09:06:35.526Z</time>
      </trkpt>
      <trkpt lat="52.007931" lon="8.822794">
        <ele>93.664087</ele>
        <time>2026-05-25T09:06:40.175Z</time>
      </trkpt>
      <trkpt lat="52.007962" lon="8.822428">
        <ele>94.008201</ele>
        <time>2026-05-25T09:06:45.639Z</time>
      </trkpt>
      <trkpt lat="52.007975" lon="8.822274">
        <ele>94.152983</ele>
        <time>2026-05-25T09:06:47.934Z</time>
      </trkpt>
      <trkpt lat="52.007978" lon="8.822218">
        <ele>94.205340</ele>
        <time>2026-05-25T09:06:48.738Z</time>
      </trkpt>
      <trkpt lat="52.007999" lon="8.821718">
        <ele>94.672134</ele>
        <time>2026-05-25T09:06:55.879Z</time>
      </trkpt>
      <trkpt lat="52.008792" lon="8.812701">
        <ele>100.343892</ele>
        <time>2026-05-25T09:09:01.803Z</time>
      </trkpt>
      <trkpt lat="52.008819" lon="8.812394">
        <ele>100.530003</ele>
        <time>2026-05-25T09:09:06.084Z</time>
      </trkpt>
      <trkpt lat="52.007992" lon="8.812340">
        <ele>101.410104</ele>
        <time>2026-05-25T09:09:24.751Z</time>
      </trkpt>
      <trkpt lat="52.007834" lon="8.811434">
        <ele>102.035893</ele>
        <time>2026-05-25T09:09:38.267Z</time>
      </trkpt>
      <trkpt lat="52.007630" lon="8.811264">
        <ele>102.283420</ele>
        <time>2026-05-25T09:09:43.618Z</time>
      </trkpt>
      <trkpt lat="52.007582" lon="8.811204">
        <ele>102.348807</ele>
        <time>2026-05-25T09:09:45.016Z</time>
      </trkpt>
      <trkpt lat="52.007551" lon="8.811097">
        <ele>102.427397</ele>
        <time>2026-05-25T09:09:46.713Z</time>
      </trkpt>
      <trkpt lat="52.007524" lon="8.809419">
        <ele>103.761684</ele>
        <time>2026-05-25T09:10:10.824Z</time>
      </trkpt>
      <trkpt lat="52.007525" lon="8.809266">
        <ele>103.886891</ele>
        <time>2026-05-25T09:10:12.936Z</time>
      </trkpt>
      <trkpt lat="52.007525" lon="8.809205">
        <ele>103.936808</ele>
        <time>2026-05-25T09:10:13.790Z</time>
      </trkpt>
      <trkpt lat="52.007500" lon="8.808434">
        <ele>104.568595</ele>
        <time>2026-05-25T09:10:24.705Z</time>
      </trkpt>
      <trkpt lat="52.007466" lon="8.808036">
        <ele>104.897401</ele>
        <time>2026-05-25T09:10:30.401Z</time>
      </trkpt>
      <trkpt lat="52.007393" lon="8.807531">
        <ele>105.435086</ele>
        <time>2026-05-25T09:10:37.813Z</time>
      </trkpt>
      <trkpt lat="52.007342" lon="8.807283">
        <ele>105.721663</ele>
        <time>2026-05-25T09:10:41.562Z</time>
      </trkpt>
      <trkpt lat="52.007405" lon="8.807179">
        <ele>105.881585</ele>
        <time>2026-05-25T09:10:43.649Z</time>
      </trkpt>
      <trkpt lat="52.007427" lon="8.807026">
        <ele>106.053788</ele>
        <time>2026-05-25T09:10:45.904Z</time>
      </trkpt>
      <trkpt lat="52.007402" lon="8.806924">
        <ele>106.174117</ele>
        <time>2026-05-25T09:10:47.476Z</time>
      </trkpt>
      <trkpt lat="52.007352" lon="8.806843">
        <ele>106.299842</ele>
        <time>2026-05-25T09:10:49.112Z</time>
      </trkpt>
      <trkpt lat="52.007228" lon="8.806790">
        <ele>106.528138</ele>
        <time>2026-05-25T09:10:52.094Z</time>
      </trkpt>
      <trkpt lat="52.007163" lon="8.806562">
        <ele>106.803528</ele>
        <time>2026-05-25T09:10:55.795Z</time>
      </trkpt>
      <trkpt lat="52.007084" lon="8.806285">
        <ele>107.138126</ele>
        <time>2026-05-25T09:11:00.299Z</time>
      </trkpt>
      <trkpt lat="52.007055" lon="8.806199">
        <ele>107.245599</ele>
        <time>2026-05-25T09:11:01.770Z</time>
      </trkpt>
      <trkpt lat="52.007006" lon="8.806076">
        <ele>107.406178</ele>
        <time>2026-05-25T09:11:03.923Z</time>
      </trkpt>
      <trkpt lat="52.006937" lon="8.805917">
        <ele>107.619396</ele>
        <time>2026-05-25T09:11:06.806Z</time>
      </trkpt>
      <trkpt lat="52.006862" lon="8.805744">
        <ele>107.851312</ele>
        <time>2026-05-25T09:11:09.921Z</time>
      </trkpt>
      <trkpt lat="52.006535" lon="8.805082">
        <ele>108.443159</ele>
        <time>2026-05-25T09:11:22.288Z</time>
      </trkpt>
      <trkpt lat="52.006499" lon="8.805021">
        <ele>108.482720</ele>
        <time>2026-05-25T09:11:23.492Z</time>
      </trkpt>
      <trkpt lat="52.006432" lon="8.804908">
        <ele>108.556170</ele>
        <time>2026-05-25T09:11:25.754Z</time>
      </trkpt>
      <trkpt lat="52.006637" lon="8.804569">
        <ele>108.778640</ele>
        <time>2026-05-25T09:11:33.947Z</time>
      </trkpt>
      <trkpt lat="52.006851" lon="8.804239">
        <ele>109.003037</ele>
        <time>2026-05-25T09:11:42.204Z</time>
      </trkpt>
      <trkpt lat="52.006934" lon="8.804100">
        <ele>109.093695</ele>
        <time>2026-05-25T09:11:45.523Z</time>
      </trkpt>
      <trkpt lat="52.007108" lon="8.803816">
        <ele>109.281278</ele>
        <time>2026-05-25T09:11:52.395Z</time>
      </trkpt>
      <trkpt lat="52.007330" lon="8.803454">
        <ele>109.520493</ele>
        <time>2026-05-25T09:12:01.054Z</time>
      </trkpt>
      <trkpt lat="52.007500" lon="8.803178">
        <ele>109.436303</ele>
        <time>2026-05-25T09:12:07.634Z</time>
      </trkpt>
      <trkpt lat="52.007563" lon="8.803075">
        <ele>109.378751</ele>
        <time>2026-05-25T09:12:10.071Z</time>
      </trkpt>
      <trkpt lat="52.007927" lon="8.802470">
        <ele>109.043441</ele>
        <time>2026-05-25T09:12:24.019Z</time>
      </trkpt>
      <trkpt lat="52.008156" lon="8.802558">
        <ele>108.891920</ele>
        <time>2026-05-25T09:12:28.542Z</time>
      </trkpt>
      <trkpt lat="52.008352" lon="8.802632">
        <ele>108.762354</ele>
        <time>2026-05-25T09:12:32.413Z</time>
      </trkpt>
      <trkpt lat="52.008546" lon="8.802712">
        <ele>108.633477</ele>
        <time>2026-05-25T09:12:36.236Z</time>
      </trkpt>
      <trkpt lat="52.008763" lon="8.802802">
        <ele>108.489271</ele>
        <time>2026-05-25T09:12:40.581Z</time>
      </trkpt>
      <trkpt lat="52.008809" lon="8.802822">
        <ele>108.458610</ele>
        <time>2026-05-25T09:12:41.512Z</time>
      </trkpt>
      <trkpt lat="52.008958" lon="8.802876">
        <ele>108.413931</ele>
        <time>2026-05-25T09:12:44.578Z</time>
      </trkpt>
      <trkpt lat="52.009031" lon="8.802904">
        <ele>108.429959</ele>
        <time>2026-05-25T09:12:46.103Z</time>
      </trkpt>
      <trkpt lat="52.009139" lon="8.802598">
        <ele>108.476353</ele>
        <time>2026-05-25T09:12:53.606Z</time>
      </trkpt>
      <trkpt lat="52.009441" lon="8.802016">
        <ele>108.576473</ele>
        <time>2026-05-25T09:13:09.839Z</time>
      </trkpt>
      <trkpt lat="52.009509" lon="8.801811">
        <ele>108.607102</ele>
        <time>2026-05-25T09:13:14.773Z</time>
      </trkpt>
      <trkpt lat="52.009562" lon="8.801616">
        <ele>108.635139</ele>
        <time>2026-05-25T09:13:19.294Z</time>
      </trkpt>
      <trkpt lat="52.009577" lon="8.801399">
        <ele>108.663859</ele>
        <time>2026-05-25T09:13:23.900Z</time>
      </trkpt>
      <trkpt lat="52.009489" lon="8.801226">
        <ele>108.693378</ele>
        <time>2026-05-25T09:13:28.577Z</time>
      </trkpt>
      <trkpt lat="52.009554" lon="8.801140">
        <ele>108.711290</ele>
        <time>2026-05-25T09:13:30.460Z</time>
      </trkpt>
      <trkpt lat="52.009561" lon="8.801130">
        <ele>108.713282</ele>
        <time>2026-05-25T09:13:30.676Z</time>
      </trkpt>
      <trkpt lat="52.009874" lon="8.800713">
        <ele>108.798202</ele>
        <time>2026-05-25T09:13:39.835Z</time>
      </trkpt>
      <trkpt lat="52.010008" lon="8.800510">
        <ele>108.833209</ele>
        <time>2026-05-25T09:13:43.927Z</time>
      </trkpt>
      <trkpt lat="52.010281" lon="8.800036">
        <ele>108.909550</ele>
        <time>2026-05-25T09:13:52.759Z</time>
      </trkpt>
      <trkpt lat="52.010173" lon="8.799902">
        <ele>108.935514</ele>
        <time>2026-05-25T09:13:55.743Z</time>
      </trkpt>
      <trkpt lat="52.010281" lon="8.800036">
        <ele>108.961479</ele>
        <time>2026-05-25T09:13:58.725Z</time>
      </trkpt>
      <trkpt lat="52.010535" lon="8.799675">
        <ele>109.025958</ele>
        <time>2026-05-25T09:14:05.930Z</time>
      </trkpt>
      <trkpt lat="52.010571" lon="8.799610">
        <ele>109.036241</ele>
        <time>2026-05-25T09:14:07.051Z</time>
      </trkpt>
      <trkpt lat="52.010638" lon="8.799482">
        <ele>109.056001</ele>
        <time>2026-05-25T09:14:09.175Z</time>
      </trkpt>
      <trkpt lat="52.010753" lon="8.799252">
        <ele>109.090849</ele>
        <time>2026-05-25T09:14:12.860Z</time>
      </trkpt>
      <trkpt lat="52.010885" lon="8.799001">
        <ele>109.124378</ele>
        <time>2026-05-25T09:14:16.885Z</time>
      </trkpt>
      <trkpt lat="52.011025" lon="8.798727">
        <ele>108.967414</ele>
        <time>2026-05-25T09:14:21.131Z</time>
      </trkpt>
      <trkpt lat="52.011185" lon="8.798394">
        <ele>108.781209</ele>
        <time>2026-05-25T09:14:26.161Z</time>
      </trkpt>
      <trkpt lat="52.011255" lon="8.798421">
        <ele>108.729687</ele>
        <time>2026-05-25T09:14:27.548Z</time>
      </trkpt>
      <trkpt lat="52.011821" lon="8.798866">
        <ele>108.279397</ele>
        <time>2026-05-25T09:14:39.939Z</time>
      </trkpt>
      <trkpt lat="52.011865" lon="8.798711">
        <ele>108.204162</ele>
        <time>2026-05-25T09:14:42.003Z</time>
      </trkpt>
      <trkpt lat="52.012010" lon="8.798271">
        <ele>107.984174</ele>
        <time>2026-05-25T09:14:48.063Z</time>
      </trkpt>
      <trkpt lat="52.012093" lon="8.797994">
        <ele>107.848381</ele>
        <time>2026-05-25T09:14:51.838Z</time>
      </trkpt>
      <trkpt lat="52.012176" lon="8.797716">
        <ele>107.811280</ele>
        <time>2026-05-25T09:14:55.690Z</time>
      </trkpt>
      <trkpt lat="52.012518" lon="8.796625">
        <ele>107.688343</ele>
        <time>2026-05-25T09:15:11.395Z</time>
      </trkpt>
      <trkpt lat="52.013247" lon="8.794262">
        <ele>107.078835</ele>
        <time>2026-05-25T09:15:45.673Z</time>
      </trkpt>
      <trkpt lat="52.013293" lon="8.794026">
        <ele>106.985083</ele>
        <time>2026-05-25T09:15:48.744Z</time>
      </trkpt>
      <trkpt lat="52.013313" lon="8.793162">
        <ele>106.657640</ele>
        <time>2026-05-25T09:15:58.968Z</time>
      </trkpt>
      <trkpt lat="52.013299" lon="8.792816">
        <ele>106.526322</ele>
        <time>2026-05-25T09:16:03.061Z</time>
      </trkpt>
      <trkpt lat="52.013476" lon="8.792769">
        <ele>106.379201</ele>
        <time>2026-05-25T09:16:06.505Z</time>
      </trkpt>
      <trkpt lat="52.013721" lon="8.792667">
        <ele>105.988890</ele>
        <time>2026-05-25T09:16:11.252Z</time>
      </trkpt>
      <trkpt lat="52.014866" lon="8.792253">
        <ele>104.178646</ele>
        <time>2026-05-25T09:16:32.605Z</time>
      </trkpt>
      <trkpt lat="52.015047" lon="8.792126">
        <ele>103.874385</ele>
        <time>2026-05-25T09:16:36.241Z</time>
      </trkpt>
      <trkpt lat="52.015266" lon="8.791873">
        <ele>103.496593</ele>
        <time>2026-05-25T09:16:40.987Z</time>
      </trkpt>
      <trkpt lat="52.015252" lon="8.791810">
        <ele>103.444432</ele>
        <time>2026-05-25T09:16:41.746Z</time>
      </trkpt>
      <trkpt lat="52.015439" lon="8.791608">
        <ele>103.160296</ele>
        <time>2026-05-25T09:16:47.138Z</time>
      </trkpt>
      <trkpt lat="52.015872" lon="8.791141">
        <ele>102.502695</ele>
        <time>2026-05-25T09:16:59.931Z</time>
      </trkpt>
      <trkpt lat="52.015949" lon="8.791026">
        <ele>102.370359</ele>
        <time>2026-05-25T09:17:02.523Z</time>
      </trkpt>
      <trkpt lat="52.015980" lon="8.791079">
        <ele>102.313420</ele>
        <time>2026-05-25T09:17:03.366Z</time>
      </trkpt>
      <trkpt lat="52.016190" lon="8.790489">
        <ele>101.782662</ele>
        <time>2026-05-25T09:17:11.271Z</time>
      </trkpt>
      <trkpt lat="52.016379" lon="8.789953">
        <ele>101.440957</ele>
        <time>2026-05-25T09:17:18.802Z</time>
      </trkpt>
      <trkpt lat="52.016389" lon="8.789927">
        <ele>101.455278</ele>
        <time>2026-05-25T09:17:19.197Z</time>
      </trkpt>
      <trkpt lat="52.016776" lon="8.789072">
        <ele>101.951011</ele>
        <time>2026-05-25T09:17:33.696Z</time>
      </trkpt>
      <trkpt lat="52.016840" lon="8.788927">
        <ele>102.034354</ele>
        <time>2026-05-25T09:17:36.191Z</time>
      </trkpt>
      <trkpt lat="52.016961" lon="8.788653">
        <ele>102.191873</ele>
        <time>2026-05-25T09:17:40.915Z</time>
      </trkpt>
      <trkpt lat="52.017257" lon="8.787905">
        <ele>102.607238</ele>
        <time>2026-05-25T09:17:53.340Z</time>
      </trkpt>
      <trkpt lat="52.017273" lon="8.787804">
        <ele>102.655950</ele>
        <time>2026-05-25T09:17:54.805Z</time>
      </trkpt>
      <trkpt lat="52.017423" lon="8.787598">
        <ele>102.780165</ele>
        <time>2026-05-25T09:17:59.262Z</time>
      </trkpt>
      <trkpt lat="52.017380" lon="8.787529">
        <ele>102.803786</ele>
        <time>2026-05-25T09:18:00.629Z</time>
      </trkpt>
      <trkpt lat="52.017642" lon="8.787300">
        <ele>102.920065</ele>
        <time>2026-05-25T09:18:07.369Z</time>
      </trkpt>
      <trkpt lat="52.017808" lon="8.787143">
        <ele>102.995137</ele>
        <time>2026-05-25T09:18:11.736Z</time>
      </trkpt>
      <trkpt lat="52.017970" lon="8.786984">
        <ele>103.069110</ele>
        <time>2026-05-25T09:18:15.964Z</time>
      </trkpt>
      <trkpt lat="52.018347" lon="8.786611">
        <ele>103.241628</ele>
        <time>2026-05-25T09:18:25.405Z</time>
      </trkpt>
      <trkpt lat="52.018942" lon="8.786060">
        <ele>103.369638</ele>
        <time>2026-05-25T09:18:39.479Z</time>
      </trkpt>
      <trkpt lat="52.019137" lon="8.785905">
        <ele>103.228793</ele>
        <time>2026-05-25T09:18:43.790Z</time>
      </trkpt>
      <trkpt lat="52.019456" lon="8.785541">
        <ele>102.975888</ele>
        <time>2026-05-25T09:18:51.445Z</time>
      </trkpt>
      <trkpt lat="52.019930" lon="8.785091">
        <ele>102.619709</ele>
        <time>2026-05-25T09:19:02.215Z</time>
      </trkpt>
      <trkpt lat="52.020203" lon="8.784831">
        <ele>102.414402</ele>
        <time>2026-05-25T09:19:08.496Z</time>
      </trkpt>
      <trkpt lat="52.020233" lon="8.784752">
        <ele>102.377337</ele>
        <time>2026-05-25T09:19:09.646Z</time>
      </trkpt>
      <trkpt lat="52.020758" lon="8.784240">
        <ele>102.173526</ele>
        <time>2026-05-25T09:19:21.912Z</time>
      </trkpt>
      <trkpt lat="52.021346" lon="8.783668">
        <ele>102.006602</ele>
        <time>2026-05-25T09:19:35.887Z</time>
      </trkpt>
      <trkpt lat="52.021984" lon="8.783039">
        <ele>101.934289</ele>
        <time>2026-05-25T09:19:51.589Z</time>
      </trkpt>
      <trkpt lat="52.021508" lon="8.781672">
        <ele>102.658236</ele>
        <time>2026-05-25T09:20:13.155Z</time>
      </trkpt>
      <trkpt lat="52.021272" lon="8.781255">
        <ele>102.919364</ele>
        <time>2026-05-25T09:20:21.049Z</time>
      </trkpt>
      <trkpt lat="52.021197" lon="8.781183">
        <ele>102.984610</ele>
        <time>2026-05-25T09:20:23.023Z</time>
      </trkpt>
      <trkpt lat="52.021061" lon="8.781125">
        <ele>103.089925</ele>
        <time>2026-05-25T09:20:26.213Z</time>
      </trkpt>
      <trkpt lat="52.019785" lon="8.780064">
        <ele>103.768977</ele>
        <time>2026-05-25T09:20:58.152Z</time>
      </trkpt>
      <trkpt lat="52.019663" lon="8.779909">
        <ele>103.837528</ele>
        <time>2026-05-25T09:21:01.473Z</time>
      </trkpt>
      <trkpt lat="52.019247" lon="8.778848">
        <ele>103.344085</ele>
        <time>2026-05-25T09:21:17.122Z</time>
      </trkpt>
      <trkpt lat="52.019114" lon="8.778595">
        <ele>103.025382</ele>
        <time>2026-05-25T09:21:20.969Z</time>
      </trkpt>
      <trkpt lat="52.018964" lon="8.778407">
        <ele>102.730545</ele>
        <time>2026-05-25T09:21:24.418Z</time>
      </trkpt>
      <trkpt lat="52.018461" lon="8.778122">
        <ele>101.901446</ele>
        <time>2026-05-25T09:21:33.760Z</time>
      </trkpt>
      <trkpt lat="52.018297" lon="8.777929">
        <ele>101.586285</ele>
        <time>2026-05-25T09:21:37.227Z</time>
      </trkpt>
      <trkpt lat="52.018194" lon="8.777604">
        <ele>101.236137</ele>
        <time>2026-05-25T09:21:41.051Z</time>
      </trkpt>
      <trkpt lat="52.018181" lon="8.777530">
        <ele>101.156097</ele>
        <time>2026-05-25T09:21:41.853Z</time>
      </trkpt>
      <trkpt lat="52.018104" lon="8.777098">
        <ele>100.643261</ele>
        <time>2026-05-25T09:21:46.564Z</time>
      </trkpt>
      <trkpt lat="52.018071" lon="8.776684">
        <ele>100.167251</ele>
        <time>2026-05-25T09:21:50.996Z</time>
      </trkpt>
      <trkpt lat="52.018041" lon="8.773957">
        <ele>97.410923</ele>
        <time>2026-05-25T09:22:21.449Z</time>
      </trkpt>
      <trkpt lat="52.018055" lon="8.773021">
        <ele>96.811878</ele>
        <time>2026-05-25T09:22:32.507Z</time>
      </trkpt>
      <trkpt lat="52.018234" lon="8.772050">
        <ele>96.163342</ele>
        <time>2026-05-25T09:22:44.811Z</time>
      </trkpt>
      <trkpt lat="52.017918" lon="8.772297">
        <ele>96.009803</ele>
        <time>2026-05-25T09:22:51.846Z</time>
      </trkpt>
      <trkpt lat="52.017798" lon="8.772314">
        <ele>96.020563</ele>
        <time>2026-05-25T09:22:54.270Z</time>
      </trkpt>
      <trkpt lat="52.016376" lon="8.771791">
        <ele>96.150805</ele>
        <time>2026-05-25T09:23:25.070Z</time>
      </trkpt>
      <trkpt lat="52.015980" lon="8.771800">
        <ele>96.838308</ele>
        <time>2026-05-25T09:23:34.100Z</time>
      </trkpt>
      <trkpt lat="52.015585" lon="8.771860">
        <ele>97.586967</ele>
        <time>2026-05-25T09:23:43.396Z</time>
      </trkpt>
      <trkpt lat="52.014536" lon="8.771997">
        <ele>99.564360</ele>
        <time>2026-05-25T09:24:08.362Z</time>
      </trkpt>
      <trkpt lat="52.014374" lon="8.772018">
        <ele>99.765519</ele>
        <time>2026-05-25T09:24:12.191Z</time>
      </trkpt>
      <trkpt lat="52.014109" lon="8.772055">
        <ele>100.094743</ele>
        <time>2026-05-25T09:24:18.433Z</time>
      </trkpt>
      <trkpt lat="52.013651" lon="8.772120">
        <ele>100.663811</ele>
        <time>2026-05-25T09:24:29.009Z</time>
      </trkpt>
      <trkpt lat="52.013073" lon="8.772135">
        <ele>101.379346</ele>
        <time>2026-05-25T09:24:42.009Z</time>
      </trkpt>
      <trkpt lat="52.012848" lon="8.772141">
        <ele>101.657887</ele>
        <time>2026-05-25T09:24:46.940Z</time>
      </trkpt>
      <trkpt lat="52.012574" lon="8.772128">
        <ele>101.597697</ele>
        <time>2026-05-25T09:24:52.746Z</time>
      </trkpt>
      <trkpt lat="52.012069" lon="8.772104">
        <ele>101.101865</ele>
        <time>2026-05-25T09:25:02.928Z</time>
      </trkpt>
      <trkpt lat="52.011650" lon="8.772077">
        <ele>100.690324</ele>
        <time>2026-05-25T09:25:10.971Z</time>
      </trkpt>
      <trkpt lat="52.011492" lon="8.772067">
        <ele>100.535141</ele>
        <time>2026-05-25T09:25:13.925Z</time>
      </trkpt>
      <trkpt lat="52.011113" lon="8.772043">
        <ele>100.162899</ele>
        <time>2026-05-25T09:25:20.765Z</time>
      </trkpt>
      <trkpt lat="52.010200" lon="8.771983">
        <ele>98.286905</ele>
        <time>2026-05-25T09:25:36.683Z</time>
      </trkpt>
      <trkpt lat="52.009991" lon="8.771934">
        <ele>97.806534</ele>
        <time>2026-05-25T09:25:40.250Z</time>
      </trkpt>
      <trkpt lat="52.009959" lon="8.771870">
        <ele>97.691079</ele>
        <time>2026-05-25T09:25:41.100Z</time>
      </trkpt>
      <trkpt lat="52.009922" lon="8.771612">
        <ele>97.320143</ele>
        <time>2026-05-25T09:25:43.848Z</time>
      </trkpt>
      <trkpt lat="52.009913" lon="8.771532">
        <ele>97.206269</ele>
        <time>2026-05-25T09:25:44.697Z</time>
      </trkpt>
      <trkpt lat="52.009856" lon="8.771078">
        <ele>96.557474</ele>
        <time>2026-05-25T09:25:49.552Z</time>
      </trkpt>
      <trkpt lat="52.009819" lon="8.770950">
        <ele>96.359464</ele>
        <time>2026-05-25T09:25:51.046Z</time>
      </trkpt>
      <trkpt lat="52.009771" lon="8.770870">
        <ele>96.203031</ele>
        <time>2026-05-25T09:25:52.229Z</time>
      </trkpt>
      <trkpt lat="52.009502" lon="8.770343">
        <ele>95.333644</ele>
        <time>2026-05-25T09:25:59.475Z</time>
      </trkpt>
      <trkpt lat="52.009403" lon="8.770175">
        <ele>95.051164</ele>
        <time>2026-05-25T09:26:01.946Z</time>
      </trkpt>
      <trkpt lat="52.008925" lon="8.769376">
        <ele>93.697893</ele>
        <time>2026-05-25T09:26:13.807Z</time>
      </trkpt>
      <trkpt lat="52.008765" lon="8.769067">
        <ele>93.207459</ele>
        <time>2026-05-25T09:26:18.261Z</time>
      </trkpt>
      <trkpt lat="52.009501" lon="8.768427">
        <ele>91.897933</ele>
        <time>2026-05-25T09:26:33.674Z</time>
      </trkpt>
      <trkpt lat="52.010512" lon="8.767722">
        <ele>90.634130</ele>
        <time>2026-05-25T09:26:55.358Z</time>
      </trkpt>
      <trkpt lat="52.010652" lon="8.767624">
        <ele>90.459019</ele>
        <time>2026-05-25T09:26:58.259Z</time>
      </trkpt>
      <trkpt lat="52.010808" lon="8.767518">
        <ele>90.247811</ele>
        <time>2026-05-25T09:27:01.421Z</time>
      </trkpt>
      <trkpt lat="52.011061" lon="8.767326">
        <ele>89.781987</ele>
        <time>2026-05-25T09:27:06.474Z</time>
      </trkpt>
      <trkpt lat="52.011007" lon="8.767064">
        <ele>89.498288</ele>
        <time>2026-05-25T09:27:11.869Z</time>
      </trkpt>
      <trkpt lat="52.010797" lon="8.766543">
        <ele>88.858834</ele>
        <time>2026-05-25T09:27:24.009Z</time>
      </trkpt>
      <trkpt lat="52.010473" lon="8.765942">
        <ele>88.038500</ele>
        <time>2026-05-25T09:27:39.263Z</time>
      </trkpt>
      <trkpt lat="52.010275" lon="8.765846">
        <ele>87.693805</ele>
        <time>2026-05-25T09:27:45.702Z</time>
      </trkpt>
      <trkpt lat="52.010420" lon="8.764987">
        <ele>87.345749</ele>
        <time>2026-05-25T09:28:03.861Z</time>
      </trkpt>
      <trkpt lat="52.010328" lon="8.764730">
        <ele>87.371402</ele>
        <time>2026-05-25T09:28:10.214Z</time>
      </trkpt>
      <trkpt lat="52.010124" lon="8.764631">
        <ele>87.401249</ele>
        <time>2026-05-25T09:28:17.557Z</time>
      </trkpt>
      <trkpt lat="52.008904" lon="8.764775">
        <ele>87.569613</ele>
        <time>2026-05-25T09:28:59.294Z</time>
      </trkpt>
      <trkpt lat="52.008634" lon="8.764769">
        <ele>87.601179</ele>
        <time>2026-05-25T09:29:08.496Z</time>
      </trkpt>
      <trkpt lat="52.007759" lon="8.764751">
        <ele>87.703476</ele>
        <time>2026-05-25T09:29:38.672Z</time>
      </trkpt>
      <trkpt lat="52.007561" lon="8.764784">
        <ele>87.726744</ele>
        <time>2026-05-25T09:29:45.567Z</time>
      </trkpt>
      <trkpt lat="52.007396" lon="8.764912">
        <ele>87.748119</ele>
        <time>2026-05-25T09:29:51.893Z</time>
      </trkpt>
      <trkpt lat="52.007019" lon="8.765320">
        <ele>87.529570</ele>
        <time>2026-05-25T09:30:07.243Z</time>
      </trkpt>
      <trkpt lat="52.006702" lon="8.765481">
        <ele>87.282210</ele>
        <time>2026-05-25T09:30:18.162Z</time>
      </trkpt>
      <trkpt lat="52.006550" lon="8.765663">
        <ele>87.141578</ele>
        <time>2026-05-25T09:30:24.349Z</time>
      </trkpt>
      <trkpt lat="52.006431" lon="8.765964">
        <ele>86.977573</ele>
        <time>2026-05-25T09:30:31.665Z</time>
      </trkpt>
      <trkpt lat="52.006279" lon="8.766790">
        <ele>86.582328</ele>
        <time>2026-05-25T09:30:49.930Z</time>
      </trkpt>
      <trkpt lat="52.006167" lon="8.767144">
        <ele>86.454975</ele>
        <time>2026-05-25T09:30:58.417Z</time>
      </trkpt>
      <trkpt lat="52.005804" lon="8.768066">
        <ele>87.067616</ele>
        <time>2026-05-25T09:31:21.595Z</time>
      </trkpt>
      <trkpt lat="52.005731" lon="8.768174">
        <ele>87.157402</ele>
        <time>2026-05-25T09:31:24.935Z</time>
      </trkpt>
      <trkpt lat="52.004909" lon="8.768600">
        <ele>87.941997</ele>
        <time>2026-05-25T09:31:54.081Z</time>
      </trkpt>
      <trkpt lat="52.004529" lon="8.768831">
        <ele>88.363179</ele>
        <time>2026-05-25T09:32:07.755Z</time>
      </trkpt>
      <trkpt lat="52.003658" lon="8.769560">
        <ele>89.439791</ele>
        <time>2026-05-25T09:32:40.965Z</time>
      </trkpt>
      <trkpt lat="52.003502" lon="8.769807">
        <ele>89.679158</ele>
        <time>2026-05-25T09:32:48.367Z</time>
      </trkpt>
      <trkpt lat="52.003294" lon="8.770459">
        <ele>90.142156</ele>
        <time>2026-05-25T09:33:03.864Z</time>
      </trkpt>
      <trkpt lat="52.002951" lon="8.771124">
        <ele>90.586889</ele>
        <time>2026-05-25T09:33:22.263Z</time>
      </trkpt>
      <trkpt lat="52.002858" lon="8.771382">
        <ele>90.740152</ele>
        <time>2026-05-25T09:33:28.573Z</time>
      </trkpt>
      <trkpt lat="52.002838" lon="8.771607">
        <ele>90.856690</ele>
        <time>2026-05-25T09:33:33.364Z</time>
      </trkpt>
      <trkpt lat="52.002924" lon="8.771886">
        <ele>91.016640</ele>
        <time>2026-05-25T09:33:39.912Z</time>
      </trkpt>
      <trkpt lat="52.003050" lon="8.772154">
        <ele>91.189506</ele>
        <time>2026-05-25T09:33:46.969Z</time>
      </trkpt>
      <trkpt lat="52.003189" lon="8.772369">
        <ele>91.349332</ele>
        <time>2026-05-25T09:33:53.474Z</time>
      </trkpt>
      <trkpt lat="52.003279" lon="8.772448">
        <ele>91.434518</ele>
        <time>2026-05-25T09:33:56.973Z</time>
      </trkpt>
      <trkpt lat="52.003182" lon="8.772768">
        <ele>91.623842</ele>
        <time>2026-05-25T09:34:04.411Z</time>
      </trkpt>
      <trkpt lat="52.003147" lon="8.773058">
        <ele>91.787148</ele>
        <time>2026-05-25T09:34:10.561Z</time>
      </trkpt>
      <trkpt lat="52.002931" lon="8.773667">
        <ele>92.175543</ele>
        <time>2026-05-25T09:34:25.191Z</time>
      </trkpt>
      <trkpt lat="52.002817" lon="8.773968">
        <ele>92.370835</ele>
        <time>2026-05-25T09:34:32.548Z</time>
      </trkpt>
      <trkpt lat="52.002376" lon="8.774847">
        <ele>92.997455</ele>
        <time>2026-05-25T09:34:56.383Z</time>
      </trkpt>
      <trkpt lat="52.002165" lon="8.775330">
        <ele>93.060003</ele>
        <time>2026-05-25T09:35:08.997Z</time>
      </trkpt>
      <trkpt lat="52.001927" lon="8.775748">
        <ele>92.901064</ele>
        <time>2026-05-25T09:35:21.139Z</time>
      </trkpt>
      <trkpt lat="52.001696" lon="8.776049">
        <ele>92.766783</ele>
        <time>2026-05-25T09:35:31.377Z</time>
      </trkpt>
      <trkpt lat="52.001471" lon="8.776285">
        <ele>92.645338</ele>
        <time>2026-05-25T09:35:40.557Z</time>
      </trkpt>
      <trkpt lat="52.000606" lon="8.777036">
        <ele>92.473886</ele>
        <time>2026-05-25T09:36:13.907Z</time>
      </trkpt>
      <trkpt lat="52.000441" lon="8.777068">
        <ele>92.553733</ele>
        <time>2026-05-25T09:36:19.664Z</time>
      </trkpt>
      <trkpt lat="52.000282" lon="8.777004">
        <ele>92.632445</ele>
        <time>2026-05-25T09:36:25.324Z</time>
      </trkpt>
      <trkpt lat="52.000124" lon="8.776896">
        <ele>92.714815</ele>
        <time>2026-05-25T09:36:31.255Z</time>
      </trkpt>
      <trkpt lat="51.999879" lon="8.776639">
        <ele>92.854956</ele>
        <time>2026-05-25T09:36:41.248Z</time>
      </trkpt>
      <trkpt lat="51.999642" lon="8.776467">
        <ele>92.979688</ele>
        <time>2026-05-25T09:36:50.087Z</time>
      </trkpt>
      <trkpt lat="51.999397" lon="8.776371">
        <ele>93.100791</ele>
        <time>2026-05-25T09:36:58.573Z</time>
      </trkpt>
      <trkpt lat="51.999133" lon="8.776285">
        <ele>93.294472</ele>
        <time>2026-05-25T09:37:07.625Z</time>
      </trkpt>
      <trkpt lat="51.998575" lon="8.776293">
        <ele>94.091142</ele>
        <time>2026-05-25T09:37:26.360Z</time>
      </trkpt>
      <trkpt lat="51.998317" lon="8.776389">
        <ele>94.469023</ele>
        <time>2026-05-25T09:37:35.264Z</time>
      </trkpt>
      <trkpt lat="51.998113" lon="8.776539">
        <ele>94.788722</ele>
        <time>2026-05-25T09:37:42.856Z</time>
      </trkpt>
      <trkpt lat="51.997980" lon="8.776732">
        <ele>95.043348</ele>
        <time>2026-05-25T09:37:48.864Z</time>
      </trkpt>
      <trkpt lat="51.997895" lon="8.776936">
        <ele>95.259868</ele>
        <time>2026-05-25T09:37:53.999Z</time>
      </trkpt>
      <trkpt lat="51.997835" lon="8.777215">
        <ele>95.519639</ele>
        <time>2026-05-25T09:38:00.153Z</time>
      </trkpt>
      <trkpt lat="51.997805" lon="8.777519">
        <ele>95.773051</ele>
        <time>2026-05-25T09:38:06.587Z</time>
      </trkpt>
      <trkpt lat="51.997704" lon="8.777964">
        <ele>95.901108</ele>
        <time>2026-05-25T09:38:16.584Z</time>
      </trkpt>
      <trkpt lat="51.997641" lon="8.777924">
        <ele>95.930772</ele>
        <time>2026-05-25T09:38:18.070Z</time>
      </trkpt>
      <trkpt lat="51.997519" lon="8.777820">
        <ele>95.991196</ele>
        <time>2026-05-25T09:38:21.098Z</time>
      </trkpt>
      <trkpt lat="51.997386" lon="8.777722">
        <ele>96.055243</ele>
        <time>2026-05-25T09:38:24.290Z</time>
      </trkpt>
      <trkpt lat="51.997273" lon="8.777639">
        <ele>96.109630</ele>
        <time>2026-05-25T09:38:27.261Z</time>
      </trkpt>
      <trkpt lat="51.997158" lon="8.777503">
        <ele>96.172015</ele>
        <time>2026-05-25T09:38:30.654Z</time>
      </trkpt>
      <trkpt lat="51.997429" lon="8.776867">
        <ele>96.380854</ele>
        <time>2026-05-25T09:38:41.025Z</time>
      </trkpt>
      <trkpt lat="51.997624" lon="8.776421">
        <ele>96.528552</ele>
        <time>2026-05-25T09:38:48.257Z</time>
      </trkpt>
      <trkpt lat="51.997573" lon="8.776351">
        <ele>96.551921</ele>
        <time>2026-05-25T09:38:49.649Z</time>
      </trkpt>
      <trkpt lat="51.999370" lon="8.772290">
        <ele>95.615267</ele>
        <time>2026-05-25T09:39:52.569Z</time>
      </trkpt>
      <trkpt lat="52.000099" lon="8.770642">
        <ele>95.231312</ele>
        <time>2026-05-25T09:40:18.114Z</time>
      </trkpt>
      <trkpt lat="52.000129" lon="8.770632">
        <ele>95.222705</ele>
        <time>2026-05-25T09:40:18.758Z</time>
      </trkpt>
      <trkpt lat="52.000700" lon="8.769368">
        <ele>94.951424</ele>
        <time>2026-05-25T09:40:38.565Z</time>
      </trkpt>
      <trkpt lat="52.000845" lon="8.769022">
        <ele>94.916078</ele>
        <time>2026-05-25T09:40:43.948Z</time>
      </trkpt>
      <trkpt lat="52.000865" lon="8.768903">
        <ele>94.909226</ele>
        <time>2026-05-25T09:40:45.531Z</time>
      </trkpt>
      <trkpt lat="52.001519" lon="8.767420">
        <ele>94.807896</ele>
        <time>2026-05-25T09:41:09.484Z</time>
      </trkpt>
      <trkpt lat="52.001946" lon="8.766089">
        <ele>94.737652</ele>
        <time>2026-05-25T09:41:28.186Z</time>
      </trkpt>
      <trkpt lat="52.002103" lon="8.765467">
        <ele>94.710784</ele>
        <time>2026-05-25T09:41:36.458Z</time>
      </trkpt>
      <trkpt lat="52.002323" lon="8.764372">
        <ele>94.664748</ele>
        <time>2026-05-25T09:41:51.562Z</time>
      </trkpt>
      <trkpt lat="52.002680" lon="8.763006">
        <ele>95.441957</ele>
        <time>2026-05-25T09:42:12.034Z</time>
      </trkpt>
      <trkpt lat="52.002723" lon="8.762715">
        <ele>95.633700</ele>
        <time>2026-05-25T09:42:16.252Z</time>
      </trkpt>
      <trkpt lat="52.003153" lon="8.761281">
        <ele>96.626902</ele>
        <time>2026-05-25T09:42:38.593Z</time>
      </trkpt>
      <trkpt lat="52.003490" lon="8.760060">
        <ele>97.293288</ele>
        <time>2026-05-25T09:42:57.195Z</time>
      </trkpt>
      <trkpt lat="52.003882" lon="8.758379">
        <ele>97.624170</ele>
        <time>2026-05-25T09:43:21.799Z</time>
      </trkpt>
      <trkpt lat="52.004047" lon="8.756908">
        <ele>96.338410</ele>
        <time>2026-05-25T09:43:39.128Z</time>
      </trkpt>
      <trkpt lat="52.004100" lon="8.756309">
        <ele>95.818030</ele>
        <time>2026-05-25T09:43:45.309Z</time>
      </trkpt>
      <trkpt lat="52.004239" lon="8.755329">
        <ele>95.136924</ele>
        <time>2026-05-25T09:43:55.578Z</time>
      </trkpt>
      <trkpt lat="52.004361" lon="8.754498">
        <ele>94.663889</ele>
        <time>2026-05-25T09:44:04.992Z</time>
      </trkpt>
      <trkpt lat="52.004385" lon="8.754299">
        <ele>94.551606</ele>
        <time>2026-05-25T09:44:07.445Z</time>
      </trkpt>
      <trkpt lat="52.004430" lon="8.753856">
        <ele>94.302998</ele>
        <time>2026-05-25T09:44:13.062Z</time>
      </trkpt>
      <trkpt lat="52.004522" lon="8.753167">
        <ele>93.912623</ele>
        <time>2026-05-25T09:44:22.570Z</time>
      </trkpt>
      <trkpt lat="52.004619" lon="8.752786">
        <ele>94.292438</ele>
        <time>2026-05-25T09:44:28.390Z</time>
      </trkpt>
      <trkpt lat="52.004752" lon="8.752397">
        <ele>94.943489</ele>
        <time>2026-05-25T09:44:34.814Z</time>
      </trkpt>
      <trkpt lat="52.004910" lon="8.752037">
        <ele>95.590377</ele>
        <time>2026-05-25T09:44:41.283Z</time>
      </trkpt>
      <trkpt lat="52.005279" lon="8.751456">
        <ele>96.811772</ele>
        <time>2026-05-25T09:44:53.586Z</time>
      </trkpt>
      <trkpt lat="52.005993" lon="8.750634">
        <ele>99.073545</ele>
        <time>2026-05-25T09:45:14.865Z</time>
      </trkpt>
      <trkpt lat="52.006253" lon="8.750248">
        <ele>100.109515</ele>
        <time>2026-05-25T09:45:23.509Z</time>
      </trkpt>
      <trkpt lat="52.006475" lon="8.749810">
        <ele>101.136762</ele>
        <time>2026-05-25T09:45:32.074Z</time>
      </trkpt>
      <trkpt lat="52.006618" lon="8.749424">
        <ele>101.952436</ele>
        <time>2026-05-25T09:45:38.813Z</time>
      </trkpt>
      <trkpt lat="52.006732" lon="8.748931">
        <ele>102.905933</ele>
        <time>2026-05-25T09:45:46.614Z</time>
      </trkpt>
      <trkpt lat="52.006823" lon="8.748542">
        <ele>103.517862</ele>
        <time>2026-05-25T09:45:52.700Z</time>
      </trkpt>
      <trkpt lat="52.007002" lon="8.747886">
        <ele>104.060056</ele>
        <time>2026-05-25T09:46:03.070Z</time>
      </trkpt>
      <trkpt lat="52.007204" lon="8.747393">
        <ele>104.507545</ele>
        <time>2026-05-25T09:46:11.518Z</time>
      </trkpt>
      <trkpt lat="52.006212" lon="8.746748">
        <ele>105.427273</ele>
        <time>2026-05-25T09:46:35.060Z</time>
      </trkpt>
      <trkpt lat="52.005961" lon="8.746584">
        <ele>105.091340</ele>
        <time>2026-05-25T09:46:40.511Z</time>
      </trkpt>
      <trkpt lat="52.005818" lon="8.746600">
        <ele>104.913356</ele>
        <time>2026-05-25T09:46:43.301Z</time>
      </trkpt>
      <trkpt lat="52.005501" lon="8.746742">
        <ele>104.505046</ele>
        <time>2026-05-25T09:46:49.488Z</time>
      </trkpt>
      <trkpt lat="52.004686" lon="8.747219">
        <ele>103.429380</ele>
        <time>2026-05-25T09:47:04.575Z</time>
      </trkpt>
      <trkpt lat="52.004419" lon="8.747320">
        <ele>103.230918</ele>
        <time>2026-05-25T09:47:09.321Z</time>
      </trkpt>
      <trkpt lat="52.004244" lon="8.747323">
        <ele>103.115753</ele>
        <time>2026-05-25T09:47:12.386Z</time>
      </trkpt>
      <trkpt lat="52.003291" lon="8.747120">
        <ele>102.483264</ele>
        <time>2026-05-25T09:47:31.254Z</time>
      </trkpt>
      <trkpt lat="52.003039" lon="8.747132">
        <ele>102.317365</ele>
        <time>2026-05-25T09:47:36.814Z</time>
      </trkpt>
      <trkpt lat="52.002748" lon="8.747225">
        <ele>102.373239</ele>
        <time>2026-05-25T09:47:43.505Z</time>
      </trkpt>
      <trkpt lat="52.002441" lon="8.747444">
        <ele>102.803039</ele>
        <time>2026-05-25T09:47:51.205Z</time>
      </trkpt>
      <trkpt lat="52.002200" lon="8.747573">
        <ele>103.128303</ele>
        <time>2026-05-25T09:47:57.127Z</time>
      </trkpt>
      <trkpt lat="52.001253" lon="8.747696">
        <ele>104.346077</ele>
        <time>2026-05-25T09:48:19.066Z</time>
      </trkpt>
      <trkpt lat="52.001126" lon="8.747713">
        <ele>104.509422</ele>
        <time>2026-05-25T09:48:21.941Z</time>
      </trkpt>
      <trkpt lat="52.000640" lon="8.747733">
        <ele>104.106694</ele>
        <time>2026-05-25T09:48:32.601Z</time>
      </trkpt>
      <trkpt lat="51.999862" lon="8.747698">
        <ele>103.452668</ele>
        <time>2026-05-25T09:48:47.834Z</time>
      </trkpt>
      <trkpt lat="51.999177" lon="8.747704">
        <ele>102.674967</ele>
        <time>2026-05-25T09:48:59.611Z</time>
      </trkpt>
      <trkpt lat="51.998666" lon="8.747391">
        <ele>101.470836</ele>
        <time>2026-05-25T09:49:08.615Z</time>
      </trkpt>
      <trkpt lat="51.998047" lon="8.746726">
        <ele>99.834499</ele>
        <time>2026-05-25T09:49:21.380Z</time>
      </trkpt>
      <trkpt lat="51.997968" lon="8.746718">
        <ele>99.659977</ele>
        <time>2026-05-25T09:49:22.806Z</time>
      </trkpt>
      <trkpt lat="51.997656" lon="8.747544">
        <ele>98.699943</ele>
        <time>2026-05-25T09:49:34.064Z</time>
      </trkpt>
      <trkpt lat="51.997325" lon="8.748331">
        <ele>98.071425</ele>
        <time>2026-05-25T09:49:45.392Z</time>
      </trkpt>
      <trkpt lat="51.997274" lon="8.748378">
        <ele>98.008620</ele>
        <time>2026-05-25T09:49:46.560Z</time>
      </trkpt>
      <trkpt lat="51.997290" lon="8.748554">
        <ele>97.891298</ele>
        <time>2026-05-25T09:49:48.693Z</time>
      </trkpt>
      <trkpt lat="51.997194" lon="8.749170">
        <ele>97.472264</ele>
        <time>2026-05-25T09:49:56.264Z</time>
      </trkpt>
      <trkpt lat="51.997188" lon="8.749218">
        <ele>97.439964</ele>
        <time>2026-05-25T09:49:56.830Z</time>
      </trkpt>
      <trkpt lat="51.996976" lon="8.750646">
        <ele>97.017641</ele>
        <time>2026-05-25T09:50:14.489Z</time>
      </trkpt>
      <trkpt lat="51.996947" lon="8.750827">
        <ele>96.999926</ele>
        <time>2026-05-25T09:50:16.829Z</time>
      </trkpt>
      <trkpt lat="51.996884" lon="8.751276">
        <ele>96.956307</ele>
        <time>2026-05-25T09:50:22.725Z</time>
      </trkpt>
      <trkpt lat="51.996840" lon="8.751551">
        <ele>96.929394</ele>
        <time>2026-05-25T09:50:26.434Z</time>
      </trkpt>
      <trkpt lat="51.996389" lon="8.751389">
        <ele>96.858336</ele>
        <time>2026-05-25T09:50:36.477Z</time>
      </trkpt>
      <trkpt lat="51.995785" lon="8.751254">
        <ele>97.138158</ele>
        <time>2026-05-25T09:50:50.070Z</time>
      </trkpt>
      <trkpt lat="51.994497" lon="8.750834">
        <ele>98.045865</ele>
        <time>2026-05-25T09:51:19.397Z</time>
      </trkpt>
      <trkpt lat="51.994278" lon="8.750763">
        <ele>98.119501</ele>
        <time>2026-05-25T09:51:24.267Z</time>
      </trkpt>
      <trkpt lat="51.993116" lon="8.749611">
        <ele>98.452214</ele>
        <time>2026-05-25T09:51:52.966Z</time>
      </trkpt>
      <trkpt lat="51.992615" lon="8.749052">
        <ele>98.920569</ele>
        <time>2026-05-25T09:52:06.149Z</time>
      </trkpt>
      <trkpt lat="51.990873" lon="8.746995">
        <ele>101.996958</ele>
        <time>2026-05-25T09:52:55.471Z</time>
      </trkpt>
      <trkpt lat="51.990263" lon="8.746088">
        <ele>103.641720</ele>
        <time>2026-05-25T09:53:14.991Z</time>
      </trkpt>
      <trkpt lat="51.990050" lon="8.745712">
        <ele>104.274369</ele>
        <time>2026-05-25T09:53:22.477Z</time>
      </trkpt>
      <trkpt lat="51.989670" lon="8.744730">
        <ele>105.795688</ele>
        <time>2026-05-25T09:53:39.458Z</time>
      </trkpt>
      <trkpt lat="51.989434" lon="8.744248">
        <ele>106.603435</ele>
        <time>2026-05-25T09:53:48.394Z</time>
      </trkpt>
      <trkpt lat="51.988876" lon="8.743247">
        <ele>108.199982</ele>
        <time>2026-05-25T09:54:07.713Z</time>
      </trkpt>
      <trkpt lat="51.988733" lon="8.742898">
        <ele>108.493375</ele>
        <time>2026-05-25T09:54:13.617Z</time>
      </trkpt>
      <trkpt lat="51.988722" lon="8.742862">
        <ele>108.521502</ele>
        <time>2026-05-25T09:54:14.179Z</time>
      </trkpt>
      <trkpt lat="51.988598" lon="8.742462">
        <ele>108.834933</ele>
        <time>2026-05-25T09:54:20.383Z</time>
      </trkpt>
      <trkpt lat="51.988330" lon="8.741216">
        <ele>109.758674</ele>
        <time>2026-05-25T09:54:38.611Z</time>
      </trkpt>
      <trkpt lat="51.988194" lon="8.740897">
        <ele>110.030227</ele>
        <time>2026-05-25T09:54:43.998Z</time>
      </trkpt>
      <trkpt lat="51.988069" lon="8.740732">
        <ele>110.038852</ele>
        <time>2026-05-25T09:54:47.614Z</time>
      </trkpt>
      <trkpt lat="51.987931" lon="8.740615">
        <ele>110.032918</ele>
        <time>2026-05-25T09:54:51.105Z</time>
      </trkpt>
      <trkpt lat="51.987405" lon="8.740282">
        <ele>110.011400</ele>
        <time>2026-05-25T09:55:03.498Z</time>
      </trkpt>
      <trkpt lat="51.987335" lon="8.740170">
        <ele>110.007654</ele>
        <time>2026-05-25T09:55:05.560Z</time>
      </trkpt>
      <trkpt lat="51.987323" lon="8.739364">
        <ele>109.988729</ele>
        <time>2026-05-25T09:55:15.739Z</time>
      </trkpt>
      <trkpt lat="51.987401" lon="8.737593">
        <ele>109.470991</ele>
        <time>2026-05-25T09:55:36.415Z</time>
      </trkpt>
      <trkpt lat="51.987411" lon="8.737499">
        <ele>109.431872</ele>
        <time>2026-05-25T09:55:37.511Z</time>
      </trkpt>
      <trkpt lat="51.987491" lon="8.736645">
        <ele>109.077635</ele>
        <time>2026-05-25T09:55:47.906Z</time>
      </trkpt>
      <trkpt lat="51.987551" lon="8.736501">
        <ele>109.006337</ele>
        <time>2026-05-25T09:55:50.154Z</time>
      </trkpt>
      <trkpt lat="51.987394" lon="8.736320">
        <ele>108.878122</ele>
        <time>2026-05-25T09:55:54.196Z</time>
      </trkpt>
      <trkpt lat="51.986733" lon="8.735639">
        <ele>109.544617</ele>
        <time>2026-05-25T09:56:11.421Z</time>
      </trkpt>
      <trkpt lat="51.986510" lon="8.735506">
        <ele>109.832311</ele>
        <time>2026-05-25T09:56:16.704Z</time>
      </trkpt>
      <trkpt lat="51.986188" lon="8.735397">
        <ele>110.230638</ele>
        <time>2026-05-25T09:56:24.261Z</time>
      </trkpt>
      <trkpt lat="51.985659" lon="8.735170">
        <ele>110.893252</ele>
        <time>2026-05-25T09:56:37.008Z</time>
      </trkpt>
      <trkpt lat="51.985391" lon="8.734683">
        <ele>111.866128</ele>
        <time>2026-05-25T09:56:46.503Z</time>
      </trkpt>
      <trkpt lat="51.985363" lon="8.734633">
        <ele>111.974287</ele>
        <time>2026-05-25T09:56:47.469Z</time>
      </trkpt>
      <trkpt lat="51.985973" lon="8.733732">
        <ele>114.117261</ele>
        <time>2026-05-25T09:57:07.381Z</time>
      </trkpt>
      <trkpt lat="51.987992" lon="8.730758">
        <ele>120.674630</ele>
        <time>2026-05-25T09:58:12.562Z</time>
      </trkpt>
      <trkpt lat="51.989750" lon="8.728174">
        <ele>122.895568</ele>
        <time>2026-05-25T09:59:05.528Z</time>
      </trkpt>
      <trkpt lat="51.989984" lon="8.727815">
        <ele>123.025192</ele>
        <time>2026-05-25T09:59:12.402Z</time>
      </trkpt>
      <trkpt lat="51.990216" lon="8.727476">
        <ele>123.150862</ele>
        <time>2026-05-25T09:59:19.013Z</time>
      </trkpt>
      <trkpt lat="51.990477" lon="8.727094">
        <ele>123.234135</ele>
        <time>2026-05-25T09:59:26.323Z</time>
      </trkpt>
      <trkpt lat="51.990605" lon="8.726903">
        <ele>123.207086</ele>
        <time>2026-05-25T09:59:29.909Z</time>
      </trkpt>
      <trkpt lat="51.990719" lon="8.726735">
        <ele>123.183132</ele>
        <time>2026-05-25T09:59:33.100Z</time>
      </trkpt>
      <trkpt lat="51.992484" lon="8.724138">
        <ele>122.883091</ele>
        <time>2026-05-25T10:00:22.560Z</time>
      </trkpt>
      <trkpt lat="51.992617" lon="8.723966">
        <ele>122.868453</ele>
        <time>2026-05-25T10:00:26.077Z</time>
      </trkpt>
      <trkpt lat="51.992745" lon="8.723732">
        <ele>122.851860</ele>
        <time>2026-05-25T10:00:30.086Z</time>
      </trkpt>
      <trkpt lat="51.992856" lon="8.723834">
        <ele>122.840880</ele>
        <time>2026-05-25T10:00:32.742Z</time>
      </trkpt>
      <trkpt lat="51.992906" lon="8.723688">
        <ele>122.832023</ele>
        <time>2026-05-25T10:00:34.911Z</time>
      </trkpt>
      <trkpt lat="51.992956" lon="8.723590">
        <ele>122.825276</ele>
        <time>2026-05-25T10:00:36.563Z</time>
      </trkpt>
      <trkpt lat="51.993194" lon="8.723466">
        <ele>122.859716</ele>
        <time>2026-05-25T10:00:41.874Z</time>
      </trkpt>
      <trkpt lat="51.993390" lon="8.723291">
        <ele>122.931193</ele>
        <time>2026-05-25T10:00:46.678Z</time>
      </trkpt>
      <trkpt lat="51.993498" lon="8.723116">
        <ele>122.979946</ele>
        <time>2026-05-25T10:00:49.979Z</time>
      </trkpt>
      <trkpt lat="51.993730" lon="8.722556">
        <ele>123.112757</ele>
        <time>2026-05-25T10:00:59.047Z</time>
      </trkpt>
      <trkpt lat="51.993905" lon="8.722224">
        <ele>123.198753</ele>
        <time>2026-05-25T10:01:04.954Z</time>
      </trkpt>
      <trkpt lat="51.993918" lon="8.722150">
        <ele>123.213895</ele>
        <time>2026-05-25T10:01:05.992Z</time>
      </trkpt>
      <trkpt lat="51.994145" lon="8.721814">
        <ele>123.312044</ele>
        <time>2026-05-25T10:01:12.707Z</time>
      </trkpt>
      <trkpt lat="51.994215" lon="8.721776">
        <ele>123.335630</ele>
        <time>2026-05-25T10:01:14.323Z</time>
      </trkpt>
      <trkpt lat="51.996100" lon="8.718993">
        <ele>124.299573</ele>
        <time>2026-05-25T10:02:09.131Z</time>
      </trkpt>
      <trkpt lat="51.997398" lon="8.717040">
        <ele>125.756120</ele>
        <time>2026-05-25T10:02:48.860Z</time>
      </trkpt>
      <trkpt lat="51.997735" lon="8.716298">
        <ele>126.356259</ele>
        <time>2026-05-25T10:03:01.752Z</time>
      </trkpt>
      <trkpt lat="51.997863" lon="8.715918">
        <ele>126.638188</ele>
        <time>2026-05-25T10:03:07.777Z</time>
      </trkpt>
      <trkpt lat="51.997979" lon="8.715466">
        <ele>126.956920</ele>
        <time>2026-05-25T10:03:14.590Z</time>
      </trkpt>
      <trkpt lat="51.998097" lon="8.714847">
        <ele>127.451209</ele>
        <time>2026-05-25T10:03:23.583Z</time>
      </trkpt>
      <trkpt lat="51.998137" lon="8.714505">
        <ele>127.732461</ele>
        <time>2026-05-25T10:03:28.402Z</time>
      </trkpt>
      <trkpt lat="51.998289" lon="8.712492">
        <ele>129.370999</ele>
        <time>2026-05-25T10:03:56.786Z</time>
      </trkpt>
      <trkpt lat="51.998329" lon="8.712085">
        <ele>129.962079</ele>
        <time>2026-05-25T10:04:02.729Z</time>
      </trkpt>
      <trkpt lat="51.998448" lon="8.711343">
        <ele>131.183434</ele>
        <time>2026-05-25T10:04:13.958Z</time>
      </trkpt>
      <trkpt lat="51.999085" lon="8.708833">
        <ele>134.721263</ele>
        <time>2026-05-25T10:04:54.498Z</time>
      </trkpt>
      <trkpt lat="51.999657" lon="8.707359">
        <ele>135.955003</ele>
        <time>2026-05-25T10:05:18.515Z</time>
      </trkpt>
      <trkpt lat="51.999760" lon="8.706899">
        <ele>135.966066</ele>
        <time>2026-05-25T10:05:24.285Z</time>
      </trkpt>
      <trkpt lat="51.999868" lon="8.706162">
        <ele>135.228112</ele>
        <time>2026-05-25T10:05:32.646Z</time>
      </trkpt>
      <trkpt lat="51.999954" lon="8.705649">
        <ele>134.710215</ele>
        <time>2026-05-25T10:05:38.292Z</time>
      </trkpt>
      <trkpt lat="52.000109" lon="8.705032">
        <ele>134.061102</ele>
        <time>2026-05-25T10:05:45.288Z</time>
      </trkpt>
      <trkpt lat="52.000099" lon="8.704922">
        <ele>133.952792</ele>
        <time>2026-05-25T10:05:46.458Z</time>
      </trkpt>
      <trkpt lat="52.000300" lon="8.704156">
        <ele>133.361312</ele>
        <time>2026-05-25T10:05:55.596Z</time>
      </trkpt>
      <trkpt lat="52.000379" lon="8.704046">
        <ele>133.405783</ele>
        <time>2026-05-25T10:05:57.618Z</time>
      </trkpt>
      <trkpt lat="52.000614" lon="8.703180">
        <ele>133.654795</ele>
        <time>2026-05-25T10:06:09.901Z</time>
      </trkpt>
      <trkpt lat="52.001054" lon="8.701421">
        <ele>134.151741</ele>
        <time>2026-05-25T10:06:36.622Z</time>
      </trkpt>
      <trkpt lat="52.000989" lon="8.701375">
        <ele>134.180927</ele>
        <time>2026-05-25T10:06:38.625Z</time>
      </trkpt>
      <trkpt lat="52.001075" lon="8.701047">
        <ele>134.271275</ele>
        <time>2026-05-25T10:06:43.686Z</time>
      </trkpt>
      <trkpt lat="52.001167" lon="8.700614">
        <ele>134.387359</ele>
        <time>2026-05-25T10:06:50.067Z</time>
      </trkpt>
      <trkpt lat="52.001304" lon="8.699963">
        <ele>134.561710</ele>
        <time>2026-05-25T10:06:59.327Z</time>
      </trkpt>
      <trkpt lat="52.001361" lon="8.699483">
        <ele>134.685595</ele>
        <time>2026-05-25T10:07:05.597Z</time>
      </trkpt>
      <trkpt lat="52.001403" lon="8.698604">
        <ele>134.454031</ele>
        <time>2026-05-25T10:07:16.384Z</time>
      </trkpt>
      <trkpt lat="52.001398" lon="8.697566">
        <ele>133.314297</ele>
        <time>2026-05-25T10:07:27.992Z</time>
      </trkpt>
      <trkpt lat="52.001306" lon="8.697565">
        <ele>133.150215</ele>
        <time>2026-05-25T10:07:30.844Z</time>
      </trkpt>
      <trkpt lat="52.001326" lon="8.697384">
        <ele>132.948305</ele>
        <time>2026-05-25T10:07:32.831Z</time>
      </trkpt>
      <trkpt lat="52.001256" lon="8.696984">
        <ele>132.491715</ele>
        <time>2026-05-25T10:07:37.279Z</time>
      </trkpt>
      <trkpt lat="52.001220" lon="8.696911">
        <ele>132.389018</ele>
        <time>2026-05-25T10:07:38.269Z</time>
      </trkpt>
      <trkpt lat="52.001109" lon="8.696431">
        <ele>131.826033</ele>
        <time>2026-05-25T10:07:43.649Z</time>
      </trkpt>
      <trkpt lat="52.000339" lon="8.696368">
        <ele>130.175794</ele>
        <time>2026-05-25T10:07:56.725Z</time>
      </trkpt>
      <trkpt lat="52.000026" lon="8.696368">
        <ele>129.485674</ele>
        <time>2026-05-25T10:08:02.216Z</time>
      </trkpt>
      <trkpt lat="51.999888" lon="8.696403">
        <ele>129.177717</ele>
        <time>2026-05-25T10:08:04.729Z</time>
      </trkpt>
      <trkpt lat="51.999558" lon="8.696416">
        <ele>128.449900</ele>
        <time>2026-05-25T10:08:10.653Z</time>
      </trkpt>
      <trkpt lat="51.999028" lon="8.696375">
        <ele>127.044634</ele>
        <time>2026-05-25T10:08:19.888Z</time>
      </trkpt>
      <trkpt lat="51.998628" lon="8.696366">
        <ele>125.601727</ele>
        <time>2026-05-25T10:08:26.651Z</time>
      </trkpt>
      <trkpt lat="51.997625" lon="8.696169">
        <ele>121.957628</ele>
        <time>2026-05-25T10:08:42.582Z</time>
      </trkpt>
      <trkpt lat="51.996961" lon="8.695877">
        <ele>119.506700</ele>
        <time>2026-05-25T10:08:52.883Z</time>
      </trkpt>
      <trkpt lat="51.996587" lon="8.695673">
        <ele>118.109243</ele>
        <time>2026-05-25T10:08:58.924Z</time>
      </trkpt>
      <trkpt lat="51.996202" lon="8.695396">
        <ele>116.617717</ele>
        <time>2026-05-25T10:09:05.621Z</time>
      </trkpt>
      <trkpt lat="51.995698" lon="8.694903">
        <ele>114.850778</ele>
        <time>2026-05-25T10:09:15.766Z</time>
      </trkpt>
      <trkpt lat="51.995262" lon="8.694304">
        <ele>115.314966</ele>
        <time>2026-05-25T10:09:27.773Z</time>
      </trkpt>
      <trkpt lat="51.995052" lon="8.693953">
        <ele>115.559909</ele>
        <time>2026-05-25T10:09:34.573Z</time>
      </trkpt>
      <trkpt lat="51.994704" lon="8.693209">
        <ele>116.027530</ele>
        <time>2026-05-25T10:09:47.857Z</time>
      </trkpt>
      <trkpt lat="51.993783" lon="8.690807">
        <ele>120.322422</ele>
        <time>2026-05-25T10:10:29.621Z</time>
      </trkpt>
      <trkpt lat="51.993305" lon="8.689557">
        <ele>122.463299</ele>
        <time>2026-05-25T10:10:51.987Z</time>
      </trkpt>
      <trkpt lat="51.992201" lon="8.686777">
        <ele>125.365261</ele>
        <time>2026-05-25T10:11:38.799Z</time>
      </trkpt>
      <trkpt lat="51.992001" lon="8.686975">
        <ele>125.452376</ele>
        <time>2026-05-25T10:11:43.702Z</time>
      </trkpt>
      <trkpt lat="51.991355" lon="8.687498">
        <ele>125.720833</ele>
        <time>2026-05-25T10:11:58.210Z</time>
      </trkpt>
      <trkpt lat="51.991295" lon="8.687580">
        <ele>125.697603</ele>
        <time>2026-05-25T10:11:59.717Z</time>
      </trkpt>
      <trkpt lat="51.991213" lon="8.687598">
        <ele>125.633567</ele>
        <time>2026-05-25T10:12:01.318Z</time>
      </trkpt>
      <trkpt lat="51.990714" lon="8.687878">
        <ele>125.224992</ele>
        <time>2026-05-25T10:12:11.438Z</time>
      </trkpt>
      <trkpt lat="51.990221" lon="8.688175">
        <ele>124.818056</ele>
        <time>2026-05-25T10:12:21.601Z</time>
      </trkpt>
      <trkpt lat="51.990004" lon="8.688259">
        <ele>124.645416</ele>
        <time>2026-05-25T10:12:26.029Z</time>
      </trkpt>
      <trkpt lat="51.989769" lon="8.688426">
        <ele>124.446900</ele>
        <time>2026-05-25T10:12:31.192Z</time>
      </trkpt>
      <trkpt lat="51.989201" lon="8.688762">
        <ele>124.434158</ele>
        <time>2026-05-25T10:12:43.689Z</time>
      </trkpt>
      <trkpt lat="51.989066" lon="8.688842">
        <ele>124.462770</ele>
        <time>2026-05-25T10:12:46.745Z</time>
      </trkpt>
      <trkpt lat="51.988901" lon="8.688937">
        <ele>124.497625</ele>
        <time>2026-05-25T10:12:50.485Z</time>
      </trkpt>
      <trkpt lat="51.987921" lon="8.689571">
        <ele>124.657987</ele>
        <time>2026-05-25T10:13:13.827Z</time>
      </trkpt>
      <trkpt lat="51.987285" lon="8.689993">
        <ele>123.996686</ele>
        <time>2026-05-25T10:13:28.094Z</time>
      </trkpt>
      <trkpt lat="51.987054" lon="8.690244">
        <ele>123.729155</ele>
        <time>2026-05-25T10:13:33.455Z</time>
      </trkpt>
      <trkpt lat="51.987492" lon="8.691090">
        <ele>123.074014</ele>
        <time>2026-05-25T10:13:45.812Z</time>
      </trkpt>
      <trkpt lat="51.987794" lon="8.691602">
        <ele>122.260403</ele>
        <time>2026-05-25T10:13:53.240Z</time>
      </trkpt>
      <trkpt lat="51.987944" lon="8.691912">
        <ele>121.734078</ele>
        <time>2026-05-25T10:13:57.323Z</time>
      </trkpt>
      <trkpt lat="51.988080" lon="8.692309">
        <ele>121.127592</ele>
        <time>2026-05-25T10:14:02.097Z</time>
      </trkpt>
      <trkpt lat="51.988473" lon="8.694161">
        <ele>118.614137</ele>
        <time>2026-05-25T10:14:23.167Z</time>
      </trkpt>
      <trkpt lat="51.988946" lon="8.697220">
        <ele>115.694044</ele>
        <time>2026-05-25T10:14:58.090Z</time>
      </trkpt>
      <trkpt lat="51.989023" lon="8.697665">
        <ele>115.560269</ele>
        <time>2026-05-25T10:15:03.788Z</time>
      </trkpt>
      <trkpt lat="51.989435" lon="8.699250">
        <ele>115.062366</ele>
        <time>2026-05-25T10:15:26.147Z</time>
      </trkpt>
      <trkpt lat="51.989477" lon="8.699619">
        <ele>115.213443</ele>
        <time>2026-05-25T10:15:31.127Z</time>
      </trkpt>
      <trkpt lat="51.989462" lon="8.699743">
        <ele>115.291210</ele>
        <time>2026-05-25T10:15:32.827Z</time>
      </trkpt>
      <trkpt lat="51.989450" lon="8.699817">
        <ele>115.338301</ele>
        <time>2026-05-25T10:15:33.863Z</time>
      </trkpt>
      <trkpt lat="51.989399" lon="8.700039">
        <ele>115.484114</ele>
        <time>2026-05-25T10:15:37.074Z</time>
      </trkpt>
      <trkpt lat="51.989210" lon="8.700807">
        <ele>115.993077</ele>
        <time>2026-05-25T10:15:48.530Z</time>
      </trkpt>
      <trkpt lat="51.989179" lon="8.700929">
        <ele>116.074295</ele>
        <time>2026-05-25T10:15:50.383Z</time>
      </trkpt>
      <trkpt lat="51.988907" lon="8.702027">
        <ele>116.802621</ele>
        <time>2026-05-25T10:16:07.174Z</time>
      </trkpt>
      <trkpt lat="51.988895" lon="8.702201">
        <ele>116.929551</ele>
        <time>2026-05-25T10:16:09.622Z</time>
      </trkpt>
      <trkpt lat="51.988914" lon="8.702418">
        <ele>117.098425</ele>
        <time>2026-05-25T10:16:12.672Z</time>
      </trkpt>
      <trkpt lat="51.989003" lon="8.702813">
        <ele>117.422492</ele>
        <time>2026-05-25T10:16:18.480Z</time>
      </trkpt>
      <trkpt lat="51.988988" lon="8.702933">
        <ele>117.516834</ele>
        <time>2026-05-25T10:16:20.186Z</time>
      </trkpt>
      <trkpt lat="51.988815" lon="8.703063">
        <ele>117.755333</ele>
        <time>2026-05-25T10:16:24.640Z</time>
      </trkpt>
      <trkpt lat="51.988124" lon="8.703253">
        <ele>118.632179</ele>
        <time>2026-05-25T10:16:41.022Z</time>
      </trkpt>
      <trkpt lat="51.987332" lon="8.703414">
        <ele>119.647181</ele>
        <time>2026-05-25T10:16:59.839Z</time>
      </trkpt>
      <trkpt lat="51.987123" lon="8.703553">
        <ele>119.938217</ele>
        <time>2026-05-25T10:17:05.285Z</time>
      </trkpt>
      <trkpt lat="51.986392" lon="8.704645">
        <ele>121.218187</ele>
        <time>2026-05-25T10:17:28.747Z</time>
      </trkpt>
      <trkpt lat="51.985843" lon="8.704763">
        <ele>121.591600</ele>
        <time>2026-05-25T10:17:41.122Z</time>
      </trkpt>
      <trkpt lat="51.985781" lon="8.704788">
        <ele>121.621022</ele>
        <time>2026-05-25T10:17:42.544Z</time>
      </trkpt>
      <trkpt lat="51.985692" lon="8.704825">
        <ele>121.663334</ele>
        <time>2026-05-25T10:17:44.559Z</time>
      </trkpt>
      <trkpt lat="51.985149" lon="8.705297">
        <ele>121.946996</ele>
        <time>2026-05-25T10:17:58.045Z</time>
      </trkpt>
      <trkpt lat="51.984535" lon="8.705571">
        <ele>122.252905</ele>
        <time>2026-05-25T10:18:12.567Z</time>
      </trkpt>
      <trkpt lat="51.984303" lon="8.705759">
        <ele>122.531114</ele>
        <time>2026-05-25T10:18:18.611Z</time>
      </trkpt>
      <trkpt lat="51.983522" lon="8.706755">
        <ele>123.596683</ele>
        <time>2026-05-25T10:18:41.943Z</time>
      </trkpt>
      <trkpt lat="51.983449" lon="8.706847">
        <ele>123.695836</ele>
        <time>2026-05-25T10:18:44.098Z</time>
      </trkpt>
      <trkpt lat="51.983241" lon="8.707870">
        <ele>124.242415</ele>
        <time>2026-05-25T10:18:59.505Z</time>
      </trkpt>
      <trkpt lat="51.983164" lon="8.708246">
        <ele>124.329055</ele>
        <time>2026-05-25T10:19:05.144Z</time>
      </trkpt>
      <trkpt lat="51.983109" lon="8.708514">
        <ele>124.390822</ele>
        <time>2026-05-25T10:19:09.149Z</time>
      </trkpt>
      <trkpt lat="51.982895" lon="8.709565">
        <ele>124.632861</ele>
        <time>2026-05-25T10:19:24.408Z</time>
      </trkpt>
      <trkpt lat="51.982889" lon="8.709590">
        <ele>124.638728</ele>
        <time>2026-05-25T10:19:24.766Z</time>
      </trkpt>
      <trkpt lat="51.982802" lon="8.710013">
        <ele>124.736240</ele>
        <time>2026-05-25T10:19:30.715Z</time>
      </trkpt>
      <trkpt lat="51.982756" lon="8.710234">
        <ele>124.787248</ele>
        <time>2026-05-25T10:19:33.819Z</time>
      </trkpt>
      <trkpt lat="51.982597" lon="8.711102">
        <ele>124.554928</ele>
        <time>2026-05-25T10:19:45.727Z</time>
      </trkpt>
      <trkpt lat="51.982349" lon="8.713236">
        <ele>123.909812</ele>
        <time>2026-05-25T10:20:13.872Z</time>
      </trkpt>
      <trkpt lat="51.982315" lon="8.713508">
        <ele>123.771351</ele>
        <time>2026-05-25T10:20:17.406Z</time>
      </trkpt>
      <trkpt lat="51.982281" lon="8.713797">
        <ele>123.624569</ele>
        <time>2026-05-25T10:20:21.113Z</time>
      </trkpt>
      <trkpt lat="51.982158" lon="8.714488">
        <ele>123.265737</ele>
        <time>2026-05-25T10:20:30.210Z</time>
      </trkpt>
      <trkpt lat="51.982150" lon="8.714539">
        <ele>123.239482</ele>
        <time>2026-05-25T10:20:30.878Z</time>
      </trkpt>
      <trkpt lat="51.982136" lon="8.714627">
        <ele>123.194140</ele>
        <time>2026-05-25T10:20:32.029Z</time>
      </trkpt>
      <trkpt lat="51.982096" lon="8.715436">
        <ele>122.789250</ele>
        <time>2026-05-25T10:20:41.892Z</time>
      </trkpt>
      <trkpt lat="51.982072" lon="8.715665">
        <ele>122.673364</ele>
        <time>2026-05-25T10:20:44.649Z</time>
      </trkpt>
      <trkpt lat="51.981941" lon="8.716772">
        <ele>122.153960</ele>
        <time>2026-05-25T10:20:58.135Z</time>
      </trkpt>
      <trkpt lat="51.981931" lon="8.716861">
        <ele>122.113761</ele>
        <time>2026-05-25T10:20:59.253Z</time>
      </trkpt>
      <trkpt lat="51.981861" lon="8.717454">
        <ele>121.845473</ele>
        <time>2026-05-25T10:21:06.752Z</time>
      </trkpt>
      <trkpt lat="51.981729" lon="8.717742">
        <ele>121.685958</ele>
        <time>2026-05-25T10:21:11.189Z</time>
      </trkpt>
      <trkpt lat="51.981681" lon="8.717878">
        <ele>121.616309</ele>
        <time>2026-05-25T10:21:13.117Z</time>
      </trkpt>
      <trkpt lat="51.981507" lon="8.718664">
        <ele>121.245183</ele>
        <time>2026-05-25T10:21:23.187Z</time>
      </trkpt>
      <trkpt lat="51.981461" lon="8.718928">
        <ele>121.216378</ele>
        <time>2026-05-25T10:21:26.511Z</time>
      </trkpt>
      <trkpt lat="51.981521" lon="8.719994">
        <ele>121.274057</ele>
        <time>2026-05-25T10:21:40.014Z</time>
      </trkpt>
      <trkpt lat="51.981511" lon="8.720251">
        <ele>121.287932</ele>
        <time>2026-05-25T10:21:43.324Z</time>
      </trkpt>
      <trkpt lat="51.981431" lon="8.720570">
        <ele>121.306491</ele>
        <time>2026-05-25T10:21:47.823Z</time>
      </trkpt>
      <trkpt lat="51.981285" lon="8.721090">
        <ele>121.337284</ele>
        <time>2026-05-25T10:21:55.458Z</time>
      </trkpt>
      <trkpt lat="51.981067" lon="8.720948">
        <ele>121.357834</ele>
        <time>2026-05-25T10:22:02.032Z</time>
      </trkpt>
      <trkpt lat="51.981285" lon="8.721090">
        <ele>121.537121</ele>
        <time>2026-05-25T10:22:08.631Z</time>
      </trkpt>
      <trkpt lat="51.981078" lon="8.721860">
        <ele>122.070549</ele>
        <time>2026-05-25T10:22:20.559Z</time>
      </trkpt>
      <trkpt lat="51.980736" lon="8.723111">
        <ele>122.939564</ele>
        <time>2026-05-25T10:22:39.707Z</time>
      </trkpt>
      <trkpt lat="51.980352" lon="8.724531">
        <ele>123.231703</ele>
        <time>2026-05-25T10:23:00.442Z</time>
      </trkpt>
      <trkpt lat="51.980525" lon="8.726431">
        <ele>123.275875</ele>
        <time>2026-05-25T10:23:24.569Z</time>
      </trkpt>
      <trkpt lat="51.980506" lon="8.727291">
        <ele>123.440002</ele>
        <time>2026-05-25T10:23:35.897Z</time>
      </trkpt>
      <trkpt lat="51.980430" lon="8.728248">
        <ele>123.624035</ele>
        <time>2026-05-25T10:23:48.946Z</time>
      </trkpt>
      <trkpt lat="51.980376" lon="8.728635">
        <ele>123.699716</ele>
        <time>2026-05-25T10:23:54.381Z</time>
      </trkpt>
      <trkpt lat="51.980299" lon="8.728869">
        <ele>123.750315</ele>
        <time>2026-05-25T10:23:58.015Z</time>
      </trkpt>
      <trkpt lat="51.979429" lon="8.730395">
        <ele>123.850616</ele>
        <time>2026-05-25T10:24:25.699Z</time>
      </trkpt>
      <trkpt lat="51.979321" lon="8.730621">
        <ele>123.857013</ele>
        <time>2026-05-25T10:24:29.274Z</time>
      </trkpt>
      <trkpt lat="51.979275" lon="8.730792">
        <ele>123.861186</ele>
        <time>2026-05-25T10:24:31.607Z</time>
      </trkpt>
      <trkpt lat="51.979243" lon="8.730973">
        <ele>123.865397</ele>
        <time>2026-05-25T10:24:33.960Z</time>
      </trkpt>
      <trkpt lat="51.979168" lon="8.732253">
        <ele>123.398858</ele>
        <time>2026-05-25T10:24:50.085Z</time>
      </trkpt>
      <trkpt lat="51.979027" lon="8.732483">
        <ele>123.201734</ele>
        <time>2026-05-25T10:24:54.019Z</time>
      </trkpt>
      <trkpt lat="51.978922" lon="8.732546">
        <ele>123.091335</ele>
        <time>2026-05-25T10:24:56.187Z</time>
      </trkpt>
      <trkpt lat="51.978451" lon="8.732692">
        <ele>122.618433</ele>
        <time>2026-05-25T10:25:05.313Z</time>
      </trkpt>
      <trkpt lat="51.978023" lon="8.732965">
        <ele>122.164920</ele>
        <time>2026-05-25T10:25:14.034Z</time>
      </trkpt>
      <trkpt lat="51.977850" lon="8.733175">
        <ele>121.864761</ele>
        <time>2026-05-25T10:25:17.997Z</time>
      </trkpt>
      <trkpt lat="51.977676" lon="8.733320">
        <ele>121.560446</ele>
        <time>2026-05-25T10:25:21.503Z</time>
      </trkpt>
      <trkpt lat="51.977620" lon="8.733352">
        <ele>121.468074</ele>
        <time>2026-05-25T10:25:22.577Z</time>
      </trkpt>
      <trkpt lat="51.977689" lon="8.733575">
        <ele>121.228900</ele>
        <time>2026-05-25T10:25:25.291Z</time>
      </trkpt>
      <trkpt lat="51.977927" lon="8.733985">
        <ele>120.688960</ele>
        <time>2026-05-25T10:25:31.324Z</time>
      </trkpt>
      <trkpt lat="51.978033" lon="8.734299">
        <ele>120.345792</ele>
        <time>2026-05-25T10:25:35.238Z</time>
      </trkpt>
      <trkpt lat="51.978265" lon="8.735546">
        <ele>119.342655</ele>
        <time>2026-05-25T10:25:50.051Z</time>
      </trkpt>
      <trkpt lat="51.978280" lon="8.735641">
        <ele>119.360162</ele>
        <time>2026-05-25T10:25:51.204Z</time>
      </trkpt>
      <trkpt lat="51.978442" lon="8.736523">
        <ele>119.524458</ele>
        <time>2026-05-25T10:26:02.847Z</time>
      </trkpt>
      <trkpt lat="51.978511" lon="8.736748">
        <ele>119.569325</ele>
        <time>2026-05-25T10:26:06.255Z</time>
      </trkpt>
      <trkpt lat="51.978733" lon="8.737160">
        <ele>119.667040</ele>
        <time>2026-05-25T10:26:13.792Z</time>
      </trkpt>
      <trkpt lat="51.978812" lon="8.737308">
        <ele>119.701999</ele>
        <time>2026-05-25T10:26:16.473Z</time>
      </trkpt>
      <trkpt lat="51.979327" lon="8.738263">
        <ele>120.417371</ele>
        <time>2026-05-25T10:26:34.316Z</time>
      </trkpt>
      <trkpt lat="51.979488" lon="8.738563">
        <ele>120.824883</ele>
        <time>2026-05-25T10:26:40.045Z</time>
      </trkpt>
      <trkpt lat="51.980134" lon="8.739764">
        <ele>122.457877</ele>
        <time>2026-05-25T10:27:02.818Z</time>
      </trkpt>
      <trkpt lat="51.980176" lon="8.739851">
        <ele>122.571084</ele>
        <time>2026-05-25T10:27:04.379Z</time>
      </trkpt>
      <trkpt lat="51.979987" lon="8.740058">
        <ele>122.911839</ele>
        <time>2026-05-25T10:27:09.721Z</time>
      </trkpt>
      <trkpt lat="51.979858" lon="8.740279">
        <ele>123.134536</ele>
        <time>2026-05-25T10:27:14.111Z</time>
      </trkpt>
      <trkpt lat="51.979369" lon="8.741499">
        <ele>124.199164</ele>
        <time>2026-05-25T10:27:34.676Z</time>
      </trkpt>
      <trkpt lat="51.979272" lon="8.741687">
        <ele>124.378540</ele>
        <time>2026-05-25T10:27:38.060Z</time>
      </trkpt>
      <trkpt lat="51.979102" lon="8.741968">
        <ele>124.666628</ele>
        <time>2026-05-25T10:27:43.437Z</time>
      </trkpt>
      <trkpt lat="51.979031" lon="8.742143">
        <ele>124.819899</ele>
        <time>2026-05-25T10:27:46.289Z</time>
      </trkpt>
      <trkpt lat="51.978710" lon="8.742590">
        <ele>124.848984</ele>
        <time>2026-05-25T10:27:55.457Z</time>
      </trkpt>
      <trkpt lat="51.977517" lon="8.744560">
        <ele>124.039336</ele>
        <time>2026-05-25T10:28:29.805Z</time>
      </trkpt>
      <trkpt lat="51.977379" lon="8.744847">
        <ele>123.706625</ele>
        <time>2026-05-25T10:28:34.003Z</time>
      </trkpt>
      <trkpt lat="51.977403" lon="8.745025">
        <ele>123.540115</ele>
        <time>2026-05-25T10:28:36.052Z</time>
      </trkpt>
      <trkpt lat="51.977363" lon="8.745050">
        <ele>123.476527</ele>
        <time>2026-05-25T10:28:36.837Z</time>
      </trkpt>
      <trkpt lat="51.977304" lon="8.745080">
        <ele>123.384806</ele>
        <time>2026-05-25T10:28:37.967Z</time>
      </trkpt>
      <trkpt lat="51.977825" lon="8.747388">
        <ele>121.374990</ele>
        <time>2026-05-25T10:29:04.896Z</time>
      </trkpt>
      <trkpt lat="51.978543" lon="8.750595">
        <ele>120.201719</ele>
        <time>2026-05-25T10:29:47.110Z</time>
      </trkpt>
      <trkpt lat="51.979216" lon="8.753563">
        <ele>119.954150</ele>
        <time>2026-05-25T10:30:29.648Z</time>
      </trkpt>
      <trkpt lat="51.979239" lon="8.753665">
        <ele>119.929241</ele>
        <time>2026-05-25T10:30:31.017Z</time>
      </trkpt>
      <trkpt lat="51.979259" lon="8.753749">
        <ele>119.908589</ele>
        <time>2026-05-25T10:30:32.134Z</time>
      </trkpt>
      <trkpt lat="51.979699" lon="8.755714">
        <ele>119.085319</ele>
        <time>2026-05-25T10:30:56.806Z</time>
      </trkpt>
      <trkpt lat="51.979863" lon="8.756347">
        <ele>118.594008</ele>
        <time>2026-05-25T10:31:04.509Z</time>
      </trkpt>
      <trkpt lat="51.979977" lon="8.756650">
        <ele>118.339986</ele>
        <time>2026-05-25T10:31:08.516Z</time>
      </trkpt>
      <trkpt lat="51.980251" lon="8.757146">
        <ele>117.863312</ele>
        <time>2026-05-25T10:31:16.216Z</time>
      </trkpt>
      <trkpt lat="51.980601" lon="8.757553">
        <ele>117.529654</ele>
        <time>2026-05-25T10:31:24.679Z</time>
      </trkpt>
      <trkpt lat="51.980779" lon="8.757687">
        <ele>117.574909</ele>
        <time>2026-05-25T10:31:28.675Z</time>
      </trkpt>
      <trkpt lat="51.981079" lon="8.757847">
        <ele>117.647744</ele>
        <time>2026-05-25T10:31:35.356Z</time>
      </trkpt>
      <trkpt lat="51.981986" lon="8.758188">
        <ele>117.862487</ele>
        <time>2026-05-25T10:31:56.104Z</time>
      </trkpt>
      <trkpt lat="51.982178" lon="8.758292">
        <ele>117.909172</ele>
        <time>2026-05-25T10:32:00.619Z</time>
      </trkpt>
      <trkpt lat="51.982381" lon="8.758458">
        <ele>117.851026</ele>
        <time>2026-05-25T10:32:05.612Z</time>
      </trkpt>
      <trkpt lat="51.982468" lon="8.758543">
        <ele>117.816440</ele>
        <time>2026-05-25T10:32:07.830Z</time>
      </trkpt>
      <trkpt lat="51.982519" lon="8.758601">
        <ele>117.795231</ele>
        <time>2026-05-25T10:32:09.166Z</time>
      </trkpt>
      <trkpt lat="51.984016" lon="8.760884">
        <ele>117.265828</ele>
        <time>2026-05-25T10:32:50.144Z</time>
      </trkpt>
      <trkpt lat="51.984792" lon="8.762099">
        <ele>117.198119</ele>
        <time>2026-05-25T10:33:13.086Z</time>
      </trkpt>
      <trkpt lat="51.984837" lon="8.762206">
        <ele>117.193107</ele>
        <time>2026-05-25T10:33:14.869Z</time>
      </trkpt>
      <trkpt lat="51.984911" lon="8.762365">
        <ele>117.259356</ele>
        <time>2026-05-25T10:33:17.567Z</time>
      </trkpt>
      <trkpt lat="51.985087" lon="8.762912">
        <ele>117.533218</ele>
        <time>2026-05-25T10:33:25.995Z</time>
      </trkpt>
      <trkpt lat="51.987990" lon="8.775667">
        <ele>122.871221</ele>
        <time>2026-05-25T10:36:32.019Z</time>
      </trkpt>
      <trkpt lat="51.988105" lon="8.776175">
        <ele>122.424995</ele>
        <time>2026-05-25T10:36:38.473Z</time>
      </trkpt>
      <trkpt lat="51.988117" lon="8.776229">
        <ele>122.333421</ele>
        <time>2026-05-25T10:36:39.110Z</time>
      </trkpt>
      <trkpt lat="51.988137" lon="8.776319">
        <ele>122.180798</ele>
        <time>2026-05-25T10:36:40.193Z</time>
      </trkpt>
      <trkpt lat="51.988955" lon="8.779944">
        <ele>115.897633</ele>
        <time>2026-05-25T10:37:18.938Z</time>
      </trkpt>
      <trkpt lat="51.989028" lon="8.779982">
        <ele>115.687964</ele>
        <time>2026-05-25T10:37:20.211Z</time>
      </trkpt>
      <trkpt lat="51.989376" lon="8.781526">
        <ele>112.872559</ele>
        <time>2026-05-25T10:37:37.685Z</time>
      </trkpt>
      <trkpt lat="51.989529" lon="8.782203">
        <ele>111.523663</ele>
        <time>2026-05-25T10:37:45.495Z</time>
      </trkpt>
      <trkpt lat="51.989690" lon="8.783104">
        <ele>109.768852</ele>
        <time>2026-05-25T10:37:55.202Z</time>
      </trkpt>
      <trkpt lat="51.989885" lon="8.784782">
        <ele>106.415115</ele>
        <time>2026-05-25T10:38:11.585Z</time>
      </trkpt>
      <trkpt lat="51.989903" lon="8.784942">
        <ele>106.073458</ele>
        <time>2026-05-25T10:38:13.110Z</time>
      </trkpt>
      <trkpt lat="51.989947" lon="8.785335">
        <ele>105.234394</ele>
        <time>2026-05-25T10:38:16.842Z</time>
      </trkpt>
      <trkpt lat="51.990054" lon="8.786298">
        <ele>103.178867</ele>
        <time>2026-05-25T10:38:26.400Z</time>
      </trkpt>
      <trkpt lat="51.990139" lon="8.787117">
        <ele>101.731788</ele>
        <time>2026-05-25T10:38:35.306Z</time>
      </trkpt>
      <trkpt lat="51.989874" lon="8.787598">
        <ele>101.706687</ele>
        <time>2026-05-25T10:38:43.262Z</time>
      </trkpt>
      <trkpt lat="51.989811" lon="8.787679">
        <ele>101.701612</ele>
        <time>2026-05-25T10:38:44.978Z</time>
      </trkpt>
      <trkpt lat="51.989772" lon="8.787736">
        <ele>101.698298</ele>
        <time>2026-05-25T10:38:46.109Z</time>
      </trkpt>
      <trkpt lat="51.989675" lon="8.787876">
        <ele>101.690102</ele>
        <time>2026-05-25T10:38:48.953Z</time>
      </trkpt>
      <trkpt lat="51.989345" lon="8.788338">
        <ele>101.662584</ele>
        <time>2026-05-25T10:38:58.681Z</time>
      </trkpt>
      <trkpt lat="51.989224" lon="8.788456">
        <ele>101.653670</ele>
        <time>2026-05-25T10:39:01.873Z</time>
      </trkpt>
      <trkpt lat="51.989126" lon="8.788484">
        <ele>101.647386</ele>
        <time>2026-05-25T10:39:04.091Z</time>
      </trkpt>
      <trkpt lat="51.989124" lon="8.788731">
        <ele>101.637779</ele>
        <time>2026-05-25T10:39:07.455Z</time>
      </trkpt>
      <trkpt lat="51.989081" lon="8.788851">
        <ele>101.632379</ele>
        <time>2026-05-25T10:39:09.339Z</time>
      </trkpt>
      <trkpt lat="51.988769" lon="8.789482">
        <ele>101.651438</ele>
        <time>2026-05-25T10:39:20.055Z</time>
      </trkpt>
      <trkpt lat="51.988563" lon="8.789991">
        <ele>101.680025</ele>
        <time>2026-05-25T10:39:27.794Z</time>
      </trkpt>
      <trkpt lat="51.988462" lon="8.790173">
        <ele>101.691523</ele>
        <time>2026-05-25T10:39:30.901Z</time>
      </trkpt>
      <trkpt lat="51.987949" lon="8.791203">
        <ele>101.753696</ele>
        <time>2026-05-25T10:39:48.093Z</time>
      </trkpt>
      <trkpt lat="51.987832" lon="8.791388">
        <ele>101.769964</ele>
        <time>2026-05-25T10:39:51.586Z</time>
      </trkpt>
      <trkpt lat="51.987604" lon="8.791672">
        <ele>101.807784</ele>
        <time>2026-05-25T10:39:57.772Z</time>
      </trkpt>
      <trkpt lat="51.987283" lon="8.792005">
        <ele>101.857917</ele>
        <time>2026-05-25T10:40:06.036Z</time>
      </trkpt>
      <trkpt lat="51.987068" lon="8.792159">
        <ele>101.888845</ele>
        <time>2026-05-25T10:40:11.149Z</time>
      </trkpt>
      <trkpt lat="51.986388" lon="8.792510">
        <ele>101.982755</ele>
        <time>2026-05-25T10:40:26.245Z</time>
      </trkpt>
      <trkpt lat="51.986241" lon="8.792630">
        <ele>101.988622</ele>
        <time>2026-05-25T10:40:29.662Z</time>
      </trkpt>
      <trkpt lat="51.986090" lon="8.792819">
        <ele>101.955447</ele>
        <time>2026-05-25T10:40:33.621Z</time>
      </trkpt>
      <trkpt lat="51.986054" lon="8.792866">
        <ele>101.947409</ele>
        <time>2026-05-25T10:40:34.572Z</time>
      </trkpt>
      <trkpt lat="51.986004" lon="8.792933">
        <ele>101.936129</ele>
        <time>2026-05-25T10:40:35.912Z</time>
      </trkpt>
      <trkpt lat="51.985775" lon="8.793290">
        <ele>101.880890</ele>
        <time>2026-05-25T10:40:42.483Z</time>
      </trkpt>
      <trkpt lat="51.985516" lon="8.793575">
        <ele>101.826449</ele>
        <time>2026-05-25T10:40:48.940Z</time>
      </trkpt>
      <trkpt lat="51.985506" lon="8.793805">
        <ele>101.801740</ele>
        <time>2026-05-25T10:40:51.847Z</time>
      </trkpt>
      <trkpt lat="51.985804" lon="8.793777">
        <ele>101.749800</ele>
        <time>2026-05-25T10:40:59.942Z</time>
      </trkpt>
      <trkpt lat="51.985807" lon="8.793861">
        <ele>101.740783</ele>
        <time>2026-05-25T10:41:01.342Z</time>
      </trkpt>
      <trkpt lat="51.985808" lon="8.793971">
        <ele>101.728994</ele>
        <time>2026-05-25T10:41:03.192Z</time>
      </trkpt>
      <trkpt lat="51.985783" lon="8.793993">
        <ele>101.724046</ele>
        <time>2026-05-25T10:41:03.773Z</time>
      </trkpt>
      <trkpt lat="51.985771" lon="8.794732">
        <ele>101.676116</ele>
        <time>2026-05-25T10:41:13.282Z</time>
      </trkpt>
      <trkpt lat="51.985715" lon="8.795220">
        <ele>101.664729</ele>
        <time>2026-05-25T10:41:19.744Z</time>
      </trkpt>
      <trkpt lat="51.985636" lon="8.795622">
        <ele>101.655049</ele>
        <time>2026-05-25T10:41:25.296Z</time>
      </trkpt>
      <trkpt lat="51.985782" lon="8.795763">
        <ele>101.648721</ele>
        <time>2026-05-25T10:41:28.917Z</time>
      </trkpt>
      <trkpt lat="51.985596" lon="8.796216">
        <ele>101.636231</ele>
        <time>2026-05-25T10:41:38.140Z</time>
      </trkpt>
      <trkpt lat="51.985201" lon="8.796686">
        <ele>101.617991</ele>
        <time>2026-05-25T10:41:51.502Z</time>
      </trkpt>
      <trkpt lat="51.985390" lon="8.797266">
        <ele>101.728671</ele>
        <time>2026-05-25T10:41:59.948Z</time>
      </trkpt>
      <trkpt lat="51.985445" lon="8.797374">
        <ele>101.752947</ele>
        <time>2026-05-25T10:42:01.790Z</time>
      </trkpt>
      <trkpt lat="51.985589" lon="8.797795">
        <ele>101.836367</ele>
        <time>2026-05-25T10:42:11.992Z</time>
      </trkpt>
      <trkpt lat="51.985614" lon="8.797858">
        <ele>101.849350</ele>
        <time>2026-05-25T10:42:13.009Z</time>
      </trkpt>
      <trkpt lat="51.985787" lon="8.798213">
        <ele>101.927768</ele>
        <time>2026-05-25T10:42:19.179Z</time>
      </trkpt>
      <trkpt lat="51.985964" lon="8.798617">
        <ele>102.013652</ele>
        <time>2026-05-25T10:42:25.904Z</time>
      </trkpt>
      <trkpt lat="51.986074" lon="8.798734">
        <ele>102.050639</ele>
        <time>2026-05-25T10:42:28.785Z</time>
      </trkpt>
      <trkpt lat="51.986654" lon="8.799354">
        <ele>102.249699</ele>
        <time>2026-05-25T10:42:43.853Z</time>
      </trkpt>
      <trkpt lat="51.986887" lon="8.798337">
        <ele>102.443410</ele>
        <time>2026-05-25T10:42:58.036Z</time>
      </trkpt>
      <trkpt lat="51.987044" lon="8.797510">
        <ele>102.597900</ele>
        <time>2026-05-25T10:43:09.505Z</time>
      </trkpt>
      <trkpt lat="51.987605" lon="8.797432">
        <ele>102.842735</ele>
        <time>2026-05-25T10:43:21.867Z</time>
      </trkpt>
      <trkpt lat="51.987748" lon="8.797416">
        <ele>102.913476</ele>
        <time>2026-05-25T10:43:25.018Z</time>
      </trkpt>
      <trkpt lat="51.987944" lon="8.797509">
        <ele>103.014251</ele>
        <time>2026-05-25T10:43:29.540Z</time>
      </trkpt>
      <trkpt lat="51.988045" lon="8.797640">
        <ele>103.078045</ele>
        <time>2026-05-25T10:43:32.424Z</time>
      </trkpt>
      <trkpt lat="51.988223" lon="8.797857">
        <ele>103.187893</ele>
        <time>2026-05-25T10:43:37.392Z</time>
      </trkpt>
      <trkpt lat="51.988409" lon="8.797505">
        <ele>103.328858</ele>
        <time>2026-05-25T10:43:43.746Z</time>
      </trkpt>
      <trkpt lat="51.988535" lon="8.797255">
        <ele>103.427040</ele>
        <time>2026-05-25T10:43:48.138Z</time>
      </trkpt>
      <trkpt lat="51.988616" lon="8.797094">
        <ele>103.490225</ele>
        <time>2026-05-25T10:43:50.929Z</time>
      </trkpt>
      <trkpt lat="51.989302" lon="8.795912">
        <ele>103.494341</ele>
        <time>2026-05-25T10:44:11.569Z</time>
      </trkpt>
      <trkpt lat="51.989482" lon="8.795724">
        <ele>103.485385</ele>
        <time>2026-05-25T10:44:16.073Z</time>
      </trkpt>
      <trkpt lat="51.989885" lon="8.795851">
        <ele>103.468205</ele>
        <time>2026-05-25T10:44:44.615Z</time>
      </trkpt>
      <trkpt lat="51.990185" lon="8.795929">
        <ele>103.460237</ele>
        <time>2026-05-25T10:45:05.732Z</time>
      </trkpt>
      <trkpt lat="51.990358" lon="8.795974">
        <ele>103.471784</ele>
        <time>2026-05-25T10:45:17.930Z</time>
      </trkpt>
      <trkpt lat="51.990578" lon="8.796099">
        <ele>103.487146</ele>
        <time>2026-05-25T10:45:34.108Z</time>
      </trkpt>
      <trkpt lat="51.990655" lon="8.796112">
        <ele>103.492249</ele>
        <time>2026-05-25T10:45:39.502Z</time>
      </trkpt>
      <trkpt lat="51.990760" lon="8.796271">
        <ele>103.501711</ele>
        <time>2026-05-25T10:45:42.506Z</time>
      </trkpt>
      <trkpt lat="51.991186" lon="8.796767">
        <ele>103.536259</ele>
        <time>2026-05-25T10:45:53.685Z</time>
      </trkpt>
      <trkpt lat="51.991535" lon="8.797171">
        <ele>103.564507</ele>
        <time>2026-05-25T10:46:02.888Z</time>
      </trkpt>
      <trkpt lat="51.992073" lon="8.797763">
        <ele>103.738878</ele>
        <time>2026-05-25T10:46:16.901Z</time>
      </trkpt>
      <trkpt lat="51.993029" lon="8.798834">
        <ele>104.135487</ele>
        <time>2026-05-25T10:46:42.202Z</time>
      </trkpt>
      <trkpt lat="51.993110" lon="8.798957">
        <ele>104.173356</ele>
        <time>2026-05-25T10:46:44.572Z</time>
      </trkpt>
      <trkpt lat="51.993037" lon="8.799103">
        <ele>104.198980</ele>
        <time>2026-05-25T10:46:47.055Z</time>
      </trkpt>
      <trkpt lat="51.993081" lon="8.799236">
        <ele>104.211343</ele>
        <time>2026-05-25T10:46:49.629Z</time>
      </trkpt>
      <trkpt lat="51.993120" lon="8.799352">
        <ele>104.222165</ele>
        <time>2026-05-25T10:46:51.893Z</time>
      </trkpt>
      <trkpt lat="51.993081" lon="8.799236">
        <ele>104.232987</ele>
        <time>2026-05-25T10:46:54.158Z</time>
      </trkpt>
      <trkpt lat="51.993178" lon="8.799154">
        <ele>104.247528</ele>
        <time>2026-05-25T10:46:57.208Z</time>
      </trkpt>
      <trkpt lat="51.993314" lon="8.799588">
        <ele>104.287402</ele>
        <time>2026-05-25T10:47:03.743Z</time>
      </trkpt>
      <trkpt lat="51.993408" lon="8.799912">
        <ele>104.316728</ele>
        <time>2026-05-25T10:47:08.500Z</time>
      </trkpt>
      <trkpt lat="51.993564" lon="8.800396">
        <ele>104.361459</ele>
        <time>2026-05-25T10:47:15.642Z</time>
      </trkpt>
      <trkpt lat="51.993597" lon="8.800499">
        <ele>104.370966</ele>
        <time>2026-05-25T10:47:17.156Z</time>
      </trkpt>
      <trkpt lat="51.993688" lon="8.800556">
        <ele>104.383936</ele>
        <time>2026-05-25T10:47:19.181Z</time>
      </trkpt>
      <trkpt lat="51.993789" lon="8.800932">
        <ele>104.417525</ele>
        <time>2026-05-25T10:47:24.454Z</time>
      </trkpt>
      <trkpt lat="51.993369" lon="8.801324">
        <ele>104.330947</ele>
        <time>2026-05-25T10:47:34.494Z</time>
      </trkpt>
      <trkpt lat="51.992526" lon="8.802116">
        <ele>104.089131</ele>
        <time>2026-05-25T10:47:54.334Z</time>
      </trkpt>
      <trkpt lat="51.992492" lon="8.802148">
        <ele>104.079373</ele>
        <time>2026-05-25T10:47:55.132Z</time>
      </trkpt>
      <trkpt lat="51.992278" lon="8.802342">
        <ele>104.018520</ele>
        <time>2026-05-25T10:48:00.155Z</time>
      </trkpt>
      <trkpt lat="51.991841" lon="8.802743">
        <ele>104.121420</ele>
        <time>2026-05-25T10:48:10.755Z</time>
      </trkpt>
      <trkpt lat="51.991755" lon="8.802821">
        <ele>104.159636</ele>
        <time>2026-05-25T10:48:12.862Z</time>
      </trkpt>
      <trkpt lat="51.991648" lon="8.802919">
        <ele>104.207295</ele>
        <time>2026-05-25T10:48:15.473Z</time>
      </trkpt>
      <trkpt lat="51.991499" lon="8.803059">
        <ele>104.274081</ele>
        <time>2026-05-25T10:48:19.181Z</time>
      </trkpt>
      <trkpt lat="51.991451" lon="8.803105">
        <ele>104.295704</ele>
        <time>2026-05-25T10:48:20.401Z</time>
      </trkpt>
      <trkpt lat="51.991246" lon="8.803297">
        <ele>104.387517</ele>
        <time>2026-05-25T10:48:25.494Z</time>
      </trkpt>
      <trkpt lat="51.990825" lon="8.803699">
        <ele>104.576994</ele>
        <time>2026-05-25T10:48:36.253Z</time>
      </trkpt>
      <trkpt lat="51.990365" lon="8.804139">
        <ele>105.054441</ele>
        <time>2026-05-25T10:48:48.209Z</time>
      </trkpt>
      <trkpt lat="51.990165" lon="8.804564">
        <ele>105.515611</ele>
        <time>2026-05-25T10:48:55.691Z</time>
      </trkpt>
      <trkpt lat="51.990133" lon="8.804632">
        <ele>105.589398</ele>
        <time>2026-05-25T10:48:56.903Z</time>
      </trkpt>
      <trkpt lat="51.990059" lon="8.804789">
        <ele>105.759860</ele>
        <time>2026-05-25T10:48:59.703Z</time>
      </trkpt>
      <trkpt lat="51.990014" lon="8.804978">
        <ele>105.934569</ele>
        <time>2026-05-25T10:49:02.565Z</time>
      </trkpt>
      <trkpt lat="51.989979" lon="8.805580">
        <ele>106.455909</ele>
        <time>2026-05-25T10:49:11.179Z</time>
      </trkpt>
      <trkpt lat="51.989902" lon="8.806660">
        <ele>107.341437</ele>
        <time>2026-05-25T10:49:26.669Z</time>
      </trkpt>
      <trkpt lat="51.989817" lon="8.807906">
        <ele>108.134176</ele>
        <time>2026-05-25T10:49:44.391Z</time>
      </trkpt>
      <trkpt lat="51.989779" lon="8.808459">
        <ele>108.486042</ele>
        <time>2026-05-25T10:49:51.987Z</time>
      </trkpt>
      <trkpt lat="51.989744" lon="8.808960">
        <ele>108.804886</ele>
        <time>2026-05-25T10:49:58.692Z</time>
      </trkpt>
      <trkpt lat="51.989692" lon="8.809801">
        <ele>109.165219</ele>
        <time>2026-05-25T10:50:10.039Z</time>
      </trkpt>
      <trkpt lat="51.989647" lon="8.810391">
        <ele>109.318157</ele>
        <time>2026-05-25T10:50:18.020Z</time>
      </trkpt>
      <trkpt lat="51.989606" lon="8.810798">
        <ele>109.424249</ele>
        <time>2026-05-25T10:50:23.539Z</time>
      </trkpt>
      <trkpt lat="51.989533" lon="8.811218">
        <ele>109.536516</ele>
        <time>2026-05-25T10:50:29.367Z</time>
      </trkpt>
      <trkpt lat="51.989495" lon="8.811391">
        <ele>109.583767</ele>
        <time>2026-05-25T10:50:31.821Z</time>
      </trkpt>
      <trkpt lat="51.989476" lon="8.811475">
        <ele>109.606788</ele>
        <time>2026-05-25T10:50:33.022Z</time>
      </trkpt>
      <trkpt lat="51.989286" lon="8.812334">
        <ele>109.782514</ele>
        <time>2026-05-25T10:50:45.401Z</time>
      </trkpt>
      <trkpt lat="51.989279" lon="8.813266">
        <ele>109.703459</ele>
        <time>2026-05-25T10:50:57.808Z</time>
      </trkpt>
      <trkpt lat="51.988545" lon="8.813304">
        <ele>109.602312</ele>
        <time>2026-05-25T10:51:13.321Z</time>
      </trkpt>
      <trkpt lat="51.987998" lon="8.813321">
        <ele>109.594652</ele>
        <time>2026-05-25T10:51:24.798Z</time>
      </trkpt>
      <trkpt lat="51.987349" lon="8.813328">
        <ele>109.774536</ele>
        <time>2026-05-25T10:51:38.796Z</time>
      </trkpt>
      <trkpt lat="51.986936" lon="8.813336">
        <ele>109.889014</ele>
        <time>2026-05-25T10:51:48.032Z</time>
      </trkpt>
      <trkpt lat="51.986872" lon="8.813337">
        <ele>109.906753</ele>
        <time>2026-05-25T10:51:49.511Z</time>
      </trkpt>
      <trkpt lat="51.986573" lon="8.813374">
        <ele>109.989866</ele>
        <time>2026-05-25T10:51:56.429Z</time>
      </trkpt>
      <trkpt lat="51.986507" lon="8.813377">
        <ele>110.008166</ele>
        <time>2026-05-25T10:51:57.972Z</time>
      </trkpt>
      <trkpt lat="51.986249" lon="8.813364">
        <ele>110.174717</ele>
        <time>2026-05-25T10:52:04.026Z</time>
      </trkpt>
      <trkpt lat="51.986238" lon="8.813477">
        <ele>110.252666</ele>
        <time>2026-05-25T10:52:05.630Z</time>
      </trkpt>
      <trkpt lat="51.986151" lon="8.813534">
        <ele>110.356461</ele>
        <time>2026-05-25T10:52:07.790Z</time>
      </trkpt>
      <trkpt lat="51.986134" lon="8.813598">
        <ele>110.403951</ele>
        <time>2026-05-25T10:52:08.770Z</time>
      </trkpt>
      <trkpt lat="51.986054" lon="8.814053">
        <ele>110.726358</ele>
        <time>2026-05-25T10:52:15.464Z</time>
      </trkpt>
      <trkpt lat="51.985824" lon="8.815311">
        <ele>111.620490</ele>
        <time>2026-05-25T10:52:33.977Z</time>
      </trkpt>
      <trkpt lat="51.985546" lon="8.816819">
        <ele>111.283989</ele>
        <time>2026-05-25T10:52:55.125Z</time>
      </trkpt>
      <trkpt lat="51.985464" lon="8.817134">
        <ele>111.015823</ele>
        <time>2026-05-25T10:52:59.240Z</time>
      </trkpt>
      <trkpt lat="51.985443" lon="8.817390">
        <ele>110.813309</ele>
        <time>2026-05-25T10:53:02.244Z</time>
      </trkpt>
      <trkpt lat="51.985131" lon="8.819026">
        <ele>109.089946</ele>
        <time>2026-05-25T10:53:20.070Z</time>
      </trkpt>
      <trkpt lat="51.984954" lon="8.820036">
        <ele>107.137568</ele>
        <time>2026-05-25T10:53:30.492Z</time>
      </trkpt>
      <trkpt lat="51.984932" lon="8.820287">
        <ele>106.666195</ele>
        <time>2026-05-25T10:53:33.024Z</time>
      </trkpt>
      <trkpt lat="51.984954" lon="8.820691">
        <ele>105.912130</ele>
        <time>2026-05-25T10:53:37.095Z</time>
      </trkpt>
      <trkpt lat="51.985096" lon="8.821640">
        <ele>104.175360</ele>
        <time>2026-05-25T10:53:47.095Z</time>
      </trkpt>
      <trkpt lat="51.985122" lon="8.821813">
        <ele>103.962329</ele>
        <time>2026-05-25T10:53:48.922Z</time>
      </trkpt>
      <trkpt lat="51.985279" lon="8.822915">
        <ele>102.609207</ele>
        <time>2026-05-25T10:54:00.678Z</time>
      </trkpt>
      <trkpt lat="51.985309" lon="8.823191">
        <ele>102.273930</ele>
        <time>2026-05-25T10:54:03.699Z</time>
      </trkpt>
      <trkpt lat="51.985353" lon="8.823454">
        <ele>101.947905</ele>
        <time>2026-05-25T10:54:06.703Z</time>
      </trkpt>
      <trkpt lat="51.985369" lon="8.823755">
        <ele>101.586485</ele>
        <time>2026-05-25T10:54:10.091Z</time>
      </trkpt>
      <trkpt lat="51.985354" lon="8.824038">
        <ele>101.246686</ele>
        <time>2026-05-25T10:54:13.374Z</time>
      </trkpt>
      <trkpt lat="51.985306" lon="8.824267">
        <ele>100.957305</ele>
        <time>2026-05-25T10:54:16.232Z</time>
      </trkpt>
      <trkpt lat="51.985164" lon="8.824612">
        <ele>101.174426</ele>
        <time>2026-05-25T10:54:21.280Z</time>
      </trkpt>
      <trkpt lat="51.984893" lon="8.825078">
        <ele>101.913959</ele>
        <time>2026-05-25T10:54:29.629Z</time>
      </trkpt>
      <trkpt lat="51.985034" lon="8.825106">
        <ele>102.180098</ele>
        <time>2026-05-25T10:54:32.825Z</time>
      </trkpt>
      <trkpt lat="51.985621" lon="8.824931">
        <ele>103.298254</ele>
        <time>2026-05-25T10:54:46.985Z</time>
      </trkpt>
      <trkpt lat="51.985877" lon="8.824960">
        <ele>103.779048</ele>
        <time>2026-05-25T10:54:53.401Z</time>
      </trkpt>
      <trkpt lat="51.986024" lon="8.825051">
        <ele>104.073796</ele>
        <time>2026-05-25T10:54:57.420Z</time>
      </trkpt>
      <trkpt lat="51.986166" lon="8.825257">
        <ele>104.767707</ele>
        <time>2026-05-25T10:55:02.397Z</time>
      </trkpt>
      <trkpt lat="51.986278" lon="8.825529">
        <ele>105.683205</ele>
        <time>2026-05-25T10:55:07.792Z</time>
      </trkpt>
      <trkpt lat="51.986847" lon="8.827856">
        <ele>112.460922</ele>
        <time>2026-05-25T10:55:49.195Z</time>
      </trkpt>
      <trkpt lat="51.986850" lon="8.828070">
        <ele>112.637504</ele>
        <time>2026-05-25T10:55:52.407Z</time>
      </trkpt>
      <trkpt lat="51.986774" lon="8.828340">
        <ele>112.882399</ele>
        <time>2026-05-25T10:55:56.762Z</time>
      </trkpt>
      <trkpt lat="51.987667" lon="8.829450">
        <ele>114.388832</ele>
        <time>2026-05-25T10:56:21.695Z</time>
      </trkpt>
      <trkpt lat="51.987822" lon="8.833234">
        <ele>114.116779</ele>
        <time>2026-05-25T10:57:09.311Z</time>
      </trkpt>
      <trkpt lat="51.987917" lon="8.835233">
        <ele>113.735810</ele>
        <time>2026-05-25T10:57:34.410Z</time>
      </trkpt>
      <trkpt lat="51.988002" lon="8.837163">
        <ele>113.908105</ele>
        <time>2026-05-25T10:57:59.622Z</time>
      </trkpt>
      <trkpt lat="51.988116" lon="8.839760">
        <ele>115.139883</ele>
        <time>2026-05-25T10:58:35.072Z</time>
      </trkpt>
      <trkpt lat="51.988244" lon="8.842432">
        <ele>117.639070</ele>
        <time>2026-05-25T10:59:13.477Z</time>
      </trkpt>
      <trkpt lat="51.988254" lon="8.842513">
        <ele>117.729134</ele>
        <time>2026-05-25T10:59:14.667Z</time>
      </trkpt>
      <trkpt lat="51.988970" lon="8.845294">
        <ele>120.660128</ele>
        <time>2026-05-25T10:59:57.598Z</time>
      </trkpt>
      <trkpt lat="51.989624" lon="8.847836">
        <ele>122.377548</ele>
        <time>2026-05-25T11:00:35.654Z</time>
      </trkpt>
      <trkpt lat="51.989711" lon="8.847795">
        <ele>122.429559</ele>
        <time>2026-05-25T11:00:37.648Z</time>
      </trkpt>
      <trkpt lat="51.993484" lon="8.850999">
        <ele>125.002070</ele>
        <time>2026-05-25T11:02:11.047Z</time>
      </trkpt>
      <trkpt lat="51.993205" lon="8.852257">
        <ele>125.740781</ele>
        <time>2026-05-25T11:02:29.541Z</time>
      </trkpt>
      <trkpt lat="51.992944" lon="8.853434">
        <ele>126.710697</ele>
        <time>2026-05-25T11:02:47.086Z</time>
      </trkpt>
      <trkpt lat="51.991979" lon="8.857757">
        <ele>130.172115</ele>
        <time>2026-05-25T11:03:51.927Z</time>
      </trkpt>
      <trkpt lat="51.992920" lon="8.858986">
        <ele>130.583286</ele>
        <time>2026-05-25T11:04:18.413Z</time>
      </trkpt>
      <trkpt lat="51.993101" lon="8.859223">
        <ele>130.662453</ele>
        <time>2026-05-25T11:04:23.032Z</time>
      </trkpt>
      <trkpt lat="51.993682" lon="8.859964">
        <ele>129.469680</ele>
        <time>2026-05-25T11:04:36.401Z</time>
      </trkpt>
      <trkpt lat="51.993833" lon="8.860117">
        <ele>129.162696</ele>
        <time>2026-05-25T11:04:39.416Z</time>
      </trkpt>
      <trkpt lat="51.994004" lon="8.860236">
        <ele>128.841811</ele>
        <time>2026-05-25T11:04:42.499Z</time>
      </trkpt>
      <trkpt lat="51.995367" lon="8.860653">
        <ele>128.254355</ele>
        <time>2026-05-25T11:05:07.236Z</time>
      </trkpt>
      <trkpt lat="51.995513" lon="8.860796">
        <ele>128.432485</ele>
        <time>2026-05-25T11:05:11.021Z</time>
      </trkpt>
      <trkpt lat="51.995534" lon="8.860841">
        <ele>128.468808</ele>
        <time>2026-05-25T11:05:11.823Z</time>
      </trkpt>
      <trkpt lat="51.995977" lon="8.862673">
        <ele>130.494273</ele>
        <time>2026-05-25T11:05:41.322Z</time>
      </trkpt>
      <trkpt lat="51.996008" lon="8.863117">
        <ele>131.555054</ele>
        <time>2026-05-25T11:05:48.211Z</time>
      </trkpt>
      <trkpt lat="51.996010" lon="8.863669">
        <ele>132.865486</ele>
        <time>2026-05-25T11:05:56.616Z</time>
      </trkpt>
      <trkpt lat="51.996013" lon="8.864577">
        <ele>135.021046</ele>
        <time>2026-05-25T11:06:10.794Z</time>
      </trkpt>
      <trkpt lat="51.996049" lon="8.864848">
        <ele>135.679184</ele>
        <time>2026-05-25T11:06:15.180Z</time>
      </trkpt>
      <trkpt lat="51.996137" lon="8.865221">
        <ele>136.706217</ele>
        <time>2026-05-25T11:06:21.523Z</time>
      </trkpt>
      <trkpt lat="51.996216" lon="8.865507">
        <ele>137.694654</ele>
        <time>2026-05-25T11:06:26.642Z</time>
      </trkpt>
      <trkpt lat="51.997029" lon="8.868287">
        <ele>146.405283</ele>
        <time>2026-05-25T11:07:18.525Z</time>
      </trkpt>
      <trkpt lat="51.997170" lon="8.868648">
        <ele>147.009030</ele>
        <time>2026-05-25T11:07:25.064Z</time>
      </trkpt>
      <trkpt lat="51.997558" lon="8.869423">
        <ele>148.419671</ele>
        <time>2026-05-25T11:07:39.684Z</time>
      </trkpt>
      <trkpt lat="51.998062" lon="8.870351">
        <ele>149.274699</ele>
        <time>2026-05-25T11:07:55.548Z</time>
      </trkpt>
      <trkpt lat="51.998275" lon="8.870693">
        <ele>148.576613</ele>
        <time>2026-05-25T11:08:01.179Z</time>
      </trkpt>
      <trkpt lat="51.998810" lon="8.871626">
        <ele>146.747012</ele>
        <time>2026-05-25T11:08:14.440Z</time>
      </trkpt>
      <trkpt lat="51.999217" lon="8.871491">
        <ele>145.778815</ele>
        <time>2026-05-25T11:08:21.005Z</time>
      </trkpt>
      <trkpt lat="51.999306" lon="8.871527">
        <ele>145.565042</ele>
        <time>2026-05-25T11:08:22.438Z</time>
      </trkpt>
      <trkpt lat="52.002466" lon="8.874407">
        <ele>132.171996</ele>
        <time>2026-05-25T11:09:19.802Z</time>
      </trkpt>
      <trkpt lat="52.002739" lon="8.874530">
        <ele>131.440186</ele>
        <time>2026-05-25T11:09:24.527Z</time>
      </trkpt>
      <trkpt lat="52.004338" lon="8.875252">
        <ele>127.237652</ele>
        <time>2026-05-25T11:09:52.966Z</time>
      </trkpt>
      <trkpt lat="52.004535" lon="8.875490">
        <ele>126.736011</ele>
        <time>2026-05-25T11:09:57.142Z</time>
      </trkpt>
      <trkpt lat="52.004897" lon="8.875954">
        <ele>125.793820</ele>
        <time>2026-05-25T11:10:05.065Z</time>
      </trkpt>
      <trkpt lat="52.005021" lon="8.876056">
        <ele>125.509824</ele>
        <time>2026-05-25T11:10:07.478Z</time>
      </trkpt>
      <trkpt lat="52.005515" lon="8.876328">
        <ele>124.444047</ele>
        <time>2026-05-25T11:10:16.648Z</time>
      </trkpt>
      <trkpt lat="52.006992" lon="8.877453">
        <ele>121.943943</ele>
        <time>2026-05-25T11:10:47.650Z</time>
      </trkpt>
      <trkpt lat="52.007187" lon="8.877554">
        <ele>121.651458</ele>
        <time>2026-05-25T11:10:51.337Z</time>
      </trkpt>
      <trkpt lat="52.007677" lon="8.877734">
        <ele>120.751791</ele>
        <time>2026-05-25T11:11:00.300Z</time>
      </trkpt>
      <trkpt lat="52.007810" lon="8.877754">
        <ele>120.469198</ele>
        <time>2026-05-25T11:11:02.628Z</time>
      </trkpt>
      <trkpt lat="52.007902" lon="8.877717">
        <ele>120.268677</ele>
        <time>2026-05-25T11:11:04.275Z</time>
      </trkpt>
      <trkpt lat="52.008088" lon="8.877535">
        <ele>119.809286</ele>
        <time>2026-05-25T11:11:08.049Z</time>
      </trkpt>
      <trkpt lat="52.008196" lon="8.877501">
        <ele>119.576539</ele>
        <time>2026-05-25T11:11:09.944Z</time>
      </trkpt>
      <trkpt lat="52.008304" lon="8.877517">
        <ele>119.347094</ele>
        <time>2026-05-25T11:11:11.810Z</time>
      </trkpt>
      <trkpt lat="52.008392" lon="8.877626">
        <ele>119.112969</ele>
        <time>2026-05-25T11:11:13.714Z</time>
      </trkpt>
      <trkpt lat="52.008649" lon="8.878090">
        <ele>118.300075</ele>
        <time>2026-05-25T11:11:20.259Z</time>
      </trkpt>
      <trkpt lat="52.008688" lon="8.878154">
        <ele>118.182792</ele>
        <time>2026-05-25T11:11:21.209Z</time>
      </trkpt>
      <trkpt lat="52.009284" lon="8.878732">
        <ele>116.842502</ele>
        <time>2026-05-25T11:11:33.299Z</time>
      </trkpt>
      <trkpt lat="52.009855" lon="8.879341">
        <ele>115.631344</ele>
        <time>2026-05-25T11:11:45.395Z</time>
      </trkpt>
      <trkpt lat="52.009983" lon="8.879408">
        <ele>115.392891</ele>
        <time>2026-05-25T11:11:47.840Z</time>
      </trkpt>
      <trkpt lat="52.010433" lon="8.879517">
        <ele>114.586151</ele>
        <time>2026-05-25T11:11:56.185Z</time>
      </trkpt>
      <trkpt lat="52.010519" lon="8.879608">
        <ele>114.404168</ele>
        <time>2026-05-25T11:11:58.101Z</time>
      </trkpt>
      <trkpt lat="52.010635" lon="8.879808">
        <ele>114.239694</ele>
        <time>2026-05-25T11:12:01.308Z</time>
      </trkpt>
      <trkpt lat="52.010779" lon="8.880090">
        <ele>114.094243</ele>
        <time>2026-05-25T11:12:05.640Z</time>
      </trkpt>
      <trkpt lat="52.011144" lon="8.880762">
        <ele>113.738474</ele>
        <time>2026-05-25T11:12:16.486Z</time>
      </trkpt>
      <trkpt lat="52.011542" lon="8.880919">
        <ele>113.474336</ele>
        <time>2026-05-25T11:12:24.783Z</time>
      </trkpt>
      <trkpt lat="52.011969" lon="8.880991">
        <ele>113.197474</ele>
        <time>2026-05-25T11:12:33.561Z</time>
      </trkpt>
      <trkpt lat="52.012626" lon="8.881031">
        <ele>113.050862</ele>
        <time>2026-05-25T11:12:47.397Z</time>
      </trkpt>
      <trkpt lat="52.013174" lon="8.881063">
        <ele>112.952911</ele>
        <time>2026-05-25T11:12:59.050Z</time>
      </trkpt>
      <trkpt lat="52.013387" lon="8.881124">
        <ele>112.914277</ele>
        <time>2026-05-25T11:13:03.500Z</time>
      </trkpt>
      <trkpt lat="52.013909" lon="8.881305">
        <ele>112.728805</ele>
        <time>2026-05-25T11:13:14.396Z</time>
      </trkpt>
      <trkpt lat="52.014725" lon="8.881601">
        <ele>111.783316</ele>
        <time>2026-05-25T11:13:31.329Z</time>
      </trkpt>
      <trkpt lat="52.014700" lon="8.882325">
        <ele>111.278626</ele>
        <time>2026-05-25T11:13:39.515Z</time>
      </trkpt>
      <trkpt lat="52.014700" lon="8.882426">
        <ele>111.208331</ele>
        <time>2026-05-25T11:13:40.646Z</time>
      </trkpt>
      <trkpt lat="52.014744" lon="8.882428">
        <ele>111.158554</ele>
        <time>2026-05-25T11:13:41.430Z</time>
      </trkpt>
      <trkpt lat="52.015081" lon="8.882969">
        <ele>110.355148</ele>
        <time>2026-05-25T11:13:49.729Z</time>
      </trkpt>
      <trkpt lat="52.015267" lon="8.883185">
        <ele>109.710053</ele>
        <time>2026-05-25T11:13:53.661Z</time>
      </trkpt>
      <trkpt lat="52.016510" lon="8.884249">
        <ele>105.745798</ele>
        <time>2026-05-25T11:14:16.451Z</time>
      </trkpt>
      <trkpt lat="52.016915" lon="8.884650">
        <ele>105.331379</ele>
        <time>2026-05-25T11:14:24.543Z</time>
      </trkpt>
      <trkpt lat="52.017565" lon="8.885397">
        <ele>104.658159</ele>
        <time>2026-05-25T11:14:39.950Z</time>
      </trkpt>
      <trkpt lat="52.017884" lon="8.885764">
        <ele>104.327646</ele>
        <time>2026-05-25T11:14:48.579Z</time>
      </trkpt>
      <trkpt lat="52.018468" lon="8.886520">
        <ele>105.413011</ele>
        <time>2026-05-25T11:15:05.730Z</time>
      </trkpt>
      <trkpt lat="52.018287" lon="8.887054">
        <ele>106.164730</ele>
        <time>2026-05-25T11:15:14.553Z</time>
      </trkpt>
      <trkpt lat="52.018159" lon="8.887534">
        <ele>106.809777</ele>
        <time>2026-05-25T11:15:22.308Z</time>
      </trkpt>
      <trkpt lat="52.018326" lon="8.887600">
        <ele>107.154139</ele>
        <time>2026-05-25T11:15:26.458Z</time>
      </trkpt>
      <trkpt lat="52.018787" lon="8.887479">
        <ele>107.859557</ele>
        <time>2026-05-25T11:15:37.595Z</time>
      </trkpt>
      <trkpt lat="52.019092" lon="8.887419">
        <ele>107.969320</ele>
        <time>2026-05-25T11:15:44.804Z</time>
      </trkpt>
      <trkpt lat="52.019226" lon="8.887444">
        <ele>108.017509</ele>
        <time>2026-05-25T11:15:47.963Z</time>
      </trkpt>
      <trkpt lat="52.020011" lon="8.887862">
        <ele>108.312638</ele>
        <time>2026-05-25T11:16:06.506Z</time>
      </trkpt>
      <trkpt lat="52.020546" lon="8.887993">
        <ele>107.745433</ele>
        <time>2026-05-25T11:16:15.710Z</time>
      </trkpt>
      <trkpt lat="52.020701" lon="8.888087">
        <ele>106.968075</ele>
        <time>2026-05-25T11:16:18.309Z</time>
      </trkpt>
      <trkpt lat="52.020841" lon="8.888172">
        <ele>106.265847</ele>
        <time>2026-05-25T11:16:20.595Z</time>
      </trkpt>
      <trkpt lat="52.021028" lon="8.888267">
        <ele>105.345260</ele>
        <time>2026-05-25T11:16:23.524Z</time>
      </trkpt>
      <trkpt lat="52.021271" lon="8.888276">
        <ele>104.203187</ele>
        <time>2026-05-25T11:16:27.106Z</time>
      </trkpt>
      <trkpt lat="52.021309" lon="8.888503">
        <ele>103.522984</ele>
        <time>2026-05-25T11:16:29.222Z</time>
      </trkpt>
      <trkpt lat="52.021367" lon="8.888488">
        <ele>103.247031</ele>
        <time>2026-05-25T11:16:30.407Z</time>
      </trkpt>
      <trkpt lat="52.021450" lon="8.888467">
        <ele>102.852343</ele>
        <time>2026-05-25T11:16:32.080Z</time>
      </trkpt>
      <trkpt lat="52.021519" lon="8.888449">
        <ele>102.523984</ele>
        <time>2026-05-25T11:16:33.468Z</time>
      </trkpt>
      <trkpt lat="52.021537" lon="8.888365">
        <ele>102.266802</ele>
        <time>2026-05-25T11:16:34.545Z</time>
      </trkpt>
      <trkpt lat="52.021580" lon="8.888308">
        <ele>102.006066</ele>
        <time>2026-05-25T11:16:35.653Z</time>
      </trkpt>
      <trkpt lat="52.021815" lon="8.888145">
        <ele>100.805503</ele>
        <time>2026-05-25T11:16:40.765Z</time>
      </trkpt>
      <trkpt lat="52.022193" lon="8.887783">
        <ele>99.622480</ele>
        <time>2026-05-25T11:16:50.177Z</time>
      </trkpt>
      <trkpt lat="52.022258" lon="8.887673">
        <ele>99.489713</ele>
        <time>2026-05-25T11:16:52.287Z</time>
      </trkpt>
      <trkpt lat="52.022383" lon="8.887658">
        <ele>99.312388</ele>
        <time>2026-05-25T11:16:54.363Z</time>
      </trkpt>
      <trkpt lat="52.022492" lon="8.887651">
        <ele>99.158059</ele>
        <time>2026-05-25T11:16:56.225Z</time>
      </trkpt>
      <trkpt lat="52.022516" lon="8.887689">
        <ele>99.110654</ele>
        <time>2026-05-25T11:16:56.805Z</time>
      </trkpt>
      <trkpt lat="52.022545" lon="8.887715">
        <ele>99.063797</ele>
        <time>2026-05-25T11:16:57.382Z</time>
      </trkpt>
      <trkpt lat="52.022595" lon="8.887902">
        <ele>98.886296</ele>
        <time>2026-05-25T11:16:59.653Z</time>
      </trkpt>
      <trkpt lat="52.022645" lon="8.888109">
        <ele>98.692703</ele>
        <time>2026-05-25T11:17:02.255Z</time>
      </trkpt>
      <trkpt lat="52.022689" lon="8.888554">
        <ele>98.300331</ele>
        <time>2026-05-25T11:17:07.896Z</time>
      </trkpt>
      <trkpt lat="52.022703" lon="8.888711">
        <ele>98.162225</ele>
        <time>2026-05-25T11:17:09.986Z</time>
      </trkpt>
      <trkpt lat="52.022842" lon="8.889981">
        <ele>97.705222</ele>
        <time>2026-05-25T11:17:27.993Z</time>
      </trkpt>
      <trkpt lat="52.022920" lon="8.890718">
        <ele>98.093715</ele>
        <time>2026-05-25T11:17:38.322Z</time>
      </trkpt>
      <trkpt lat="52.023006" lon="8.891521">
        <ele>98.517144</ele>
        <time>2026-05-25T11:17:49.716Z</time>
      </trkpt>
      <trkpt lat="52.023074" lon="8.892164">
        <ele>98.856078</ele>
        <time>2026-05-25T11:17:58.573Z</time>
      </trkpt>
      <trkpt lat="52.023110" lon="8.892529">
        <ele>99.002609</ele>
        <time>2026-05-25T11:18:03.410Z</time>
      </trkpt>
      <trkpt lat="52.023131" lon="8.892784">
        <ele>99.053282</ele>
        <time>2026-05-25T11:18:06.722Z</time>
      </trkpt>
      <trkpt lat="52.023159" lon="8.893269">
        <ele>99.149228</ele>
        <time>2026-05-25T11:18:13.044Z</time>
      </trkpt>
      <trkpt lat="52.023164" lon="8.893450">
        <ele>99.184913</ele>
        <time>2026-05-25T11:18:15.447Z</time>
      </trkpt>
      <trkpt lat="52.023171" lon="8.893721">
        <ele>99.238337</ele>
        <time>2026-05-25T11:18:19.119Z</time>
      </trkpt>
      <trkpt lat="52.023174" lon="8.893902">
        <ele>99.274000</ele>
        <time>2026-05-25T11:18:21.558Z</time>
      </trkpt>
      <trkpt lat="52.023177" lon="8.894091">
        <ele>99.311238</ele>
        <time>2026-05-25T11:18:24.144Z</time>
      </trkpt>
      <trkpt lat="52.023173" lon="8.894671">
        <ele>99.425483</ele>
        <time>2026-05-25T11:18:31.861Z</time>
      </trkpt>
      <trkpt lat="52.023171" lon="8.894890">
        <ele>99.468622</ele>
        <time>2026-05-25T11:18:34.701Z</time>
      </trkpt>
      <trkpt lat="52.023170" lon="8.895023">
        <ele>99.494820</ele>
        <time>2026-05-25T11:18:36.455Z</time>
      </trkpt>
      <trkpt lat="52.023167" lon="8.895289">
        <ele>99.547220</ele>
        <time>2026-05-25T11:18:39.997Z</time>
      </trkpt>
      <trkpt lat="52.023163" lon="8.895700">
        <ele>99.558862</ele>
        <time>2026-05-25T11:18:45.494Z</time>
      </trkpt>
      <trkpt lat="52.023158" lon="8.895991">
        <ele>99.565011</ele>
        <time>2026-05-25T11:18:49.406Z</time>
      </trkpt>
      <trkpt lat="52.023155" lon="8.896211">
        <ele>99.569658</ele>
        <time>2026-05-25T11:18:52.331Z</time>
      </trkpt>
      <trkpt lat="52.023147" lon="8.896628">
        <ele>99.578470</ele>
        <time>2026-05-25T11:18:57.907Z</time>
      </trkpt>
      <trkpt lat="52.023164" lon="8.897184">
        <ele>99.590228</ele>
        <time>2026-05-25T11:19:05.311Z</time>
      </trkpt>
      <trkpt lat="52.023196" lon="8.897471">
        <ele>99.596388</ele>
        <time>2026-05-25T11:19:09.100Z</time>
      </trkpt>
      <trkpt lat="52.023275" lon="8.897930">
        <ele>99.606454</ele>
        <time>2026-05-25T11:19:15.023Z</time>
      </trkpt>
      <trkpt lat="52.023442" lon="8.898660">
        <ele>99.549383</ele>
        <time>2026-05-25T11:19:24.439Z</time>
      </trkpt>
      <trkpt lat="52.023472" lon="8.898791">
        <ele>99.531920</ele>
        <time>2026-05-25T11:19:26.180Z</time>
      </trkpt>
      <trkpt lat="52.023474" lon="8.898910">
        <ele>99.517048</ele>
        <time>2026-05-25T11:19:27.693Z</time>
      </trkpt>
      <trkpt lat="52.023525" lon="8.899002">
        <ele>99.501578</ele>
        <time>2026-05-25T11:19:29.238Z</time>
      </trkpt>
      <trkpt lat="52.023556" lon="8.899139">
        <ele>99.483342</ele>
        <time>2026-05-25T11:19:31.101Z</time>
      </trkpt>
      <trkpt lat="52.023592" lon="8.899302">
        <ele>99.461706</ele>
        <time>2026-05-25T11:19:33.312Z</time>
      </trkpt>
      <trkpt lat="52.023588" lon="8.899390">
        <ele>99.450682</ele>
        <time>2026-05-25T11:19:34.459Z</time>
      </trkpt>
      <trkpt lat="52.023674" lon="8.899411">
        <ele>99.433026</ele>
        <time>2026-05-25T11:19:36.352Z</time>
      </trkpt>
      <trkpt lat="52.023849" lon="8.899407">
        <ele>99.397492</ele>
        <time>2026-05-25T11:19:40.265Z</time>
      </trkpt>
      <trkpt lat="52.024068" lon="8.899374">
        <ele>99.352838</ele>
        <time>2026-05-25T11:19:44.969Z</time>
      </trkpt>
      <trkpt lat="52.024100" lon="8.899368">
        <ele>99.346298</ele>
        <time>2026-05-25T11:19:45.670Z</time>
      </trkpt>
      <trkpt lat="52.024077" lon="8.899614">
        <ele>99.315212</ele>
        <time>2026-05-25T11:19:48.883Z</time>
      </trkpt>
      <trkpt lat="52.023986" lon="8.901106">
        <ele>99.071018</ele>
        <time>2026-05-25T11:20:08.003Z</time>
      </trkpt>
      <trkpt lat="52.023918" lon="8.901989">
        <ele>98.906785</ele>
        <time>2026-05-25T11:20:19.302Z</time>
      </trkpt>
      <trkpt lat="52.023946" lon="8.903493">
        <ele>98.620321</ele>
        <time>2026-05-25T11:20:37.970Z</time>
      </trkpt>
      <trkpt lat="52.023892" lon="8.904000">
        <ele>98.514762</ele>
        <time>2026-05-25T11:20:44.434Z</time>
      </trkpt>
      <trkpt lat="52.023872" lon="8.904100">
        <ele>98.493190</ele>
        <time>2026-05-25T11:20:45.759Z</time>
      </trkpt>
      <trkpt lat="52.023851" lon="8.904259">
        <ele>98.459828</ele>
        <time>2026-05-25T11:20:47.841Z</time>
      </trkpt>
      <trkpt lat="52.023846" lon="8.904631">
        <ele>98.383493</ele>
        <time>2026-05-25T11:20:52.600Z</time>
      </trkpt>
      <trkpt lat="52.023984" lon="8.905573">
        <ele>98.184837</ele>
        <time>2026-05-25T11:21:04.945Z</time>
      </trkpt>
      <trkpt lat="52.024136" lon="8.906030">
        <ele>98.107962</ele>
        <time>2026-05-25T11:21:11.416Z</time>
      </trkpt>
      <trkpt lat="52.024340" lon="8.906308">
        <ele>98.107962</ele>
        <time>2026-05-25T11:21:16.718Z</time>
      </trkpt>
      <trkpt lat="52.024396" lon="8.906385">
        <ele>98.107962</ele>
        <time>2026-05-25T11:21:18.220Z</time>
      </trkpt>
      <trkpt lat="52.025135" lon="8.907017">
        <ele>98.107962</ele>
        <time>2026-05-25T11:21:35.080Z</time>
      </trkpt>
      <trkpt lat="52.025201" lon="8.907042">
        <ele>98.107962</ele>
        <time>2026-05-25T11:21:36.912Z</time>
      </trkpt>
      <trkpt lat="52.025203" lon="8.907453">
        <ele>98.107962</ele>
        <time>2026-05-25T11:21:42.315Z</time>
      </trkpt>
      <trkpt lat="52.025148" lon="8.907466">
        <ele>98.107962</ele>
        <time>2026-05-25T11:21:43.842Z</time>
      </trkpt>
      <trkpt lat="52.025134" lon="8.907465">
        <ele>98.107962</ele>
        <time>2026-05-25T11:21:44.226Z</time>
      </trkpt>
      <trkpt lat="52.025044" lon="8.907447">
        <ele>98.107962</ele>
        <time>2026-05-25T11:21:46.083Z</time>
      </trkpt>
      <trkpt lat="52.024891" lon="8.907415">
        <ele>98.107962</ele>
        <time>2026-05-25T11:21:49.298Z</time>
      </trkpt>
      <trkpt lat="52.024761" lon="8.907326">
        <ele>98.107962</ele>
        <time>2026-05-25T11:21:52.252Z</time>
      </trkpt>
      <trkpt lat="52.024630" lon="8.907230">
        <ele>98.107962</ele>
        <time>2026-05-25T11:21:55.284Z</time>
      </trkpt>
      <trkpt lat="52.024501" lon="8.907135">
        <ele>98.107962</ele>
        <time>2026-05-25T11:21:58.307Z</time>
      </trkpt>
      <trkpt lat="52.024446" lon="8.907343">
        <ele>98.107962</ele>
        <time>2026-05-25T11:22:01.313Z</time>
      </trkpt>
    </trkseg>
  </trk>
</gpx>